LPE2478 SPJC-KLAX
Flight info
| Callsign | LPE2478 |
|---|---|
| Flight time | N/A |
| Altitude | 34000 |
| Route | TELEB2F ISREN UL344 POGAM/N0463F360 UL344 ACA UJ3 KEDMA/N0457F380 UJ3 MZT UJ7 PPE J93 ASUTA DCT AMMOR OLAAA2 |
| Aircraft | B763/H-SDE3FGHIM3RWXY/LB1 |
Departure
| Time | N/A |
|---|---|
| Airport | Jorge Chávez International Airport (SPJC) |
Arrival
| Time | 2026-05-07 11:46 |
|---|---|
| Airport | Los Angeles International Airport (KLAX) |
| Time | Latitude | Longitude | Altitude | Speed | Heading |
|---|---|---|---|---|---|
| 2026-05-07 03:36 | -9.20822 | -79.08356 | 33911 ft | 427 kts | 320° |
| 2026-05-07 03:36 | -9.16166 | -79.12174 | 33910 ft | 427 kts | 320° |
| 2026-05-07 03:37 | -9.11472 | -79.16022 | 33910 ft | 426 kts | 320° |
| 2026-05-07 03:37 | -9.06841 | -79.19818 | 33923 ft | 426 kts | 320° |
| 2026-05-07 03:38 | -9.02190 | -79.23628 | 33938 ft | 426 kts | 320° |
| 2026-05-07 03:38 | -8.97506 | -79.27464 | 33954 ft | 426 kts | 320° |
| 2026-05-07 03:39 | -8.92858 | -79.31270 | 33963 ft | 426 kts | 320° |
| 2026-05-07 03:39 | -8.88184 | -79.35095 | 33965 ft | 426 kts | 320° |
| 2026-05-07 03:40 | -8.83540 | -79.38894 | 33965 ft | 426 kts | 320° |
| 2026-05-07 03:40 | -8.78898 | -79.42690 | 33965 ft | 426 kts | 320° |
| 2026-05-07 03:41 | -8.74295 | -79.46453 | 33964 ft | 426 kts | 320° |
| 2026-05-07 03:41 | -8.69691 | -79.50217 | 33964 ft | 426 kts | 320° |
| 2026-05-07 03:42 | -8.65022 | -79.54031 | 33964 ft | 426 kts | 320° |
| 2026-05-07 03:42 | -8.60390 | -79.57815 | 33963 ft | 426 kts | 320° |
| 2026-05-07 03:43 | -8.55729 | -79.61621 | 33963 ft | 426 kts | 320° |
| 2026-05-07 03:43 | -8.51040 | -79.65448 | 33964 ft | 426 kts | 320° |
| 2026-05-07 03:44 | -8.46405 | -79.69231 | 33968 ft | 426 kts | 320° |
| 2026-05-07 03:44 | -8.41811 | -79.72971 | 33975 ft | 426 kts | 320° |
| 2026-05-07 03:45 | -8.37146 | -79.76762 | 33983 ft | 426 kts | 320° |
| 2026-05-07 03:45 | -8.32525 | -79.80517 | 33990 ft | 426 kts | 320° |
| 2026-05-07 03:46 | -8.27879 | -79.84291 | 33993 ft | 426 kts | 320° |
| 2026-05-07 03:46 | -8.23285 | -79.88022 | 33993 ft | 426 kts | 320° |
| 2026-05-07 03:47 | -8.18642 | -79.91791 | 33992 ft | 426 kts | 320° |
| 2026-05-07 03:47 | -8.13980 | -79.95575 | 33989 ft | 426 kts | 320° |
| 2026-05-07 03:48 | -8.09370 | -79.99315 | 33985 ft | 426 kts | 320° |
| 2026-05-07 03:48 | -8.04743 | -80.03069 | 33980 ft | 426 kts | 320° |
| 2026-05-07 03:49 | -8.00134 | -80.06805 | 33976 ft | 426 kts | 320° |
| 2026-05-07 03:49 | -7.95498 | -80.10564 | 33971 ft | 426 kts | 320° |
| 2026-05-07 03:50 | -7.90888 | -80.14299 | 33967 ft | 426 kts | 320° |
| 2026-05-07 03:50 | -7.86282 | -80.18031 | 33966 ft | 427 kts | 320° |
| 2026-05-07 03:51 | -7.81660 | -80.21774 | 33966 ft | 427 kts | 320° |
| 2026-05-07 03:51 | -7.77026 | -80.25526 | 33966 ft | 427 kts | 320° |
| 2026-05-07 03:52 | -7.72430 | -80.29246 | 33965 ft | 427 kts | 320° |
| 2026-05-07 03:52 | -7.67771 | -80.33015 | 33964 ft | 427 kts | 320° |
| 2026-05-07 03:53 | -7.63150 | -80.36754 | 33964 ft | 427 kts | 320° |
| 2026-05-07 03:53 | -7.58510 | -80.40506 | 33965 ft | 429 kts | 320° |
| 2026-05-07 03:54 | -7.53881 | -80.44248 | 33963 ft | 428 kts | 320° |
| 2026-05-07 03:54 | -7.49248 | -80.47993 | 33964 ft | 429 kts | 320° |
| 2026-05-07 03:55 | -7.44582 | -80.51764 | 33963 ft | 429 kts | 320° |
| 2026-05-07 03:55 | -7.39934 | -80.55518 | 33963 ft | 429 kts | 320° |
| 2026-05-07 03:56 | -7.35317 | -80.59247 | 33963 ft | 429 kts | 320° |
| 2026-05-07 03:56 | -7.30664 | -80.63004 | 33962 ft | 429 kts | 320° |
| 2026-05-07 03:57 | -7.25992 | -80.66774 | 33968 ft | 430 kts | 320° |
| 2026-05-07 03:57 | -7.21359 | -80.70512 | 33967 ft | 430 kts | 320° |
| 2026-05-07 03:58 | -7.16645 | -80.74316 | 33967 ft | 430 kts | 320° |
| 2026-05-07 03:58 | -7.11967 | -80.78088 | 33967 ft | 430 kts | 320° |
| 2026-05-07 03:59 | -7.07286 | -80.81862 | 33966 ft | 431 kts | 320° |
| 2026-05-07 03:59 | -7.02618 | -80.85625 | 33966 ft | 431 kts | 320° |
| 2026-05-07 04:00 | -6.97940 | -80.89394 | 33966 ft | 431 kts | 320° |
| 2026-05-07 04:00 | -6.93240 | -80.93180 | 33966 ft | 431 kts | 320° |
| 2026-05-07 04:01 | -6.88580 | -80.96934 | 33966 ft | 431 kts | 319° |
| 2026-05-07 04:01 | -6.83974 | -81.00642 | 33966 ft | 431 kts | 319° |
| 2026-05-07 04:02 | -6.79299 | -81.04406 | 33966 ft | 431 kts | 319° |
| 2026-05-07 04:02 | -6.74608 | -81.08181 | 33966 ft | 431 kts | 319° |
| 2026-05-07 04:03 | -6.69917 | -81.11955 | 33966 ft | 431 kts | 319° |
| 2026-05-07 04:03 | -6.65249 | -81.15710 | 33975 ft | 431 kts | 319° |
| 2026-05-07 04:04 | -6.60572 | -81.19471 | 33981 ft | 430 kts | 319° |
| 2026-05-07 04:04 | -6.55867 | -81.23254 | 33990 ft | 431 kts | 319° |
| 2026-05-07 04:05 | -6.51201 | -81.27004 | 33991 ft | 431 kts | 319° |
| 2026-05-07 04:05 | -6.46531 | -81.30756 | 33992 ft | 430 kts | 319° |
| 2026-05-07 04:06 | -6.41872 | -81.34499 | 33991 ft | 430 kts | 319° |
| 2026-05-07 04:06 | -6.37175 | -81.38273 | 33990 ft | 431 kts | 319° |
| 2026-05-07 04:07 | -6.32494 | -81.42031 | 33991 ft | 430 kts | 319° |
| 2026-05-07 04:07 | -6.27838 | -81.45769 | 33990 ft | 430 kts | 319° |
| 2026-05-07 04:08 | -6.23157 | -81.49526 | 33990 ft | 430 kts | 319° |
| 2026-05-07 04:08 | -6.18466 | -81.53291 | 33990 ft | 430 kts | 319° |
| 2026-05-07 04:09 | -6.13833 | -81.57007 | 33989 ft | 429 kts | 319° |
| 2026-05-07 04:09 | -6.09152 | -81.60762 | 33989 ft | 429 kts | 319° |
| 2026-05-07 04:10 | -6.04513 | -81.64481 | 33989 ft | 430 kts | 319° |
| 2026-05-07 04:10 | -5.99814 | -81.68249 | 33995 ft | 430 kts | 319° |
| 2026-05-07 04:11 | -5.95137 | -81.71996 | 33994 ft | 430 kts | 319° |
| 2026-05-07 04:11 | -5.90424 | -81.75773 | 33994 ft | 430 kts | 319° |
| 2026-05-07 04:12 | -5.85822 | -81.79460 | 33994 ft | 430 kts | 319° |
| 2026-05-07 04:12 | -5.81128 | -81.83220 | 33994 ft | 430 kts | 319° |
| 2026-05-07 04:13 | -5.76438 | -81.86976 | 33989 ft | 430 kts | 319° |
| 2026-05-07 04:13 | -5.71722 | -81.90763 | 33980 ft | 430 kts | 319° |
| 2026-05-07 04:14 | -5.67060 | -81.94521 | 33972 ft | 430 kts | 319° |
| 2026-05-07 04:14 | -5.62395 | -81.98280 | 33963 ft | 430 kts | 319° |
| 2026-05-07 04:15 | -5.57731 | -82.02036 | 33955 ft | 430 kts | 319° |
| 2026-05-07 04:15 | -5.53083 | -82.05780 | 33945 ft | 430 kts | 319° |
| 2026-05-07 04:16 | -5.48385 | -82.09563 | 33938 ft | 431 kts | 319° |
| 2026-05-07 04:16 | -5.43707 | -82.13329 | 33938 ft | 430 kts | 319° |
| 2026-05-07 04:17 | -5.39015 | -82.17106 | 33939 ft | 431 kts | 319° |
| 2026-05-07 04:17 | -5.34312 | -82.20890 | 33937 ft | 431 kts | 319° |
| 2026-05-07 04:18 | -5.29642 | -82.24648 | 33938 ft | 432 kts | 319° |
| 2026-05-07 04:18 | -5.24940 | -82.28429 | 33937 ft | 432 kts | 319° |
| 2026-05-07 04:19 | -5.20253 | -82.32199 | 33937 ft | 432 kts | 319° |
| 2026-05-07 04:19 | -5.15562 | -82.35971 | 33937 ft | 433 kts | 319° |
| 2026-05-07 04:20 | -5.10877 | -82.39738 | 33938 ft | 433 kts | 319° |
| 2026-05-07 04:20 | -5.06211 | -82.43488 | 33936 ft | 433 kts | 319° |
| 2026-05-07 04:21 | -4.99122 | -82.49184 | 33936 ft | 434 kts | 319° |
| 2026-05-07 04:21 | -4.94433 | -82.52951 | 33935 ft | 434 kts | 319° |
| 2026-05-07 04:22 | -4.89700 | -82.56754 | 33929 ft | 435 kts | 319° |
| 2026-05-07 04:22 | -4.84991 | -82.60535 | 33919 ft | 434 kts | 319° |
| 2026-05-07 04:23 | -4.80274 | -82.64322 | 33912 ft | 434 kts | 319° |
| 2026-05-07 04:23 | -4.75541 | -82.68122 | 33914 ft | 435 kts | 320° |
| 2026-05-07 04:24 | -4.70817 | -82.71913 | 33913 ft | 435 kts | 320° |
| 2026-05-07 04:24 | -4.66053 | -82.75736 | 33913 ft | 435 kts | 320° |
| 2026-05-07 04:25 | -4.61299 | -82.79551 | 33913 ft | 434 kts | 320° |
| 2026-05-07 04:25 | -4.56556 | -82.83356 | 33912 ft | 435 kts | 320° |
| 2026-05-07 04:26 | -4.51815 | -82.87158 | 33912 ft | 435 kts | 320° |
| 2026-05-07 04:26 | -4.47057 | -82.90974 | 33912 ft | 435 kts | 320° |
| 2026-05-07 04:27 | -4.42358 | -82.94741 | 33912 ft | 434 kts | 320° |
| 2026-05-07 04:27 | -4.37598 | -82.98557 | 33912 ft | 434 kts | 320° |
| 2026-05-07 04:28 | -4.32905 | -83.02319 | 33911 ft | 434 kts | 320° |
| 2026-05-07 04:28 | -4.28183 | -83.06104 | 33916 ft | 433 kts | 320° |
| 2026-05-07 04:29 | -4.23428 | -83.09913 | 33923 ft | 433 kts | 320° |
| 2026-05-07 04:29 | -4.18715 | -83.13689 | 33931 ft | 433 kts | 320° |
| 2026-05-07 04:30 | -4.14044 | -83.17430 | 33938 ft | 433 kts | 320° |
| 2026-05-07 04:30 | -4.09302 | -83.21228 | 33938 ft | 432 kts | 320° |
| 2026-05-07 04:31 | -4.04618 | -83.24979 | 33937 ft | 431 kts | 320° |
| 2026-05-07 04:31 | -3.99929 | -83.28733 | 33937 ft | 431 kts | 320° |
| 2026-05-07 04:32 | -3.95179 | -83.32536 | 33937 ft | 433 kts | 321° |
| 2026-05-07 04:32 | -3.90510 | -83.36272 | 33937 ft | 432 kts | 321° |
| 2026-05-07 04:33 | -3.85801 | -83.40041 | 33939 ft | 431 kts | 321° |
| 2026-05-07 04:33 | -3.81109 | -83.43795 | 33938 ft | 431 kts | 321° |
| 2026-05-07 04:34 | -3.76426 | -83.47542 | 33938 ft | 431 kts | 321° |
| 2026-05-07 04:34 | -3.71746 | -83.51286 | 33938 ft | 431 kts | 321° |
| 2026-05-07 04:35 | -3.67106 | -83.54997 | 33937 ft | 431 kts | 321° |
| 2026-05-07 04:35 | -3.62361 | -83.58791 | 33937 ft | 431 kts | 321° |
| 2026-05-07 04:36 | -3.57674 | -83.62539 | 33937 ft | 431 kts | 321° |
| 2026-05-07 04:36 | -3.52978 | -83.66293 | 33940 ft | 431 kts | 321° |
| 2026-05-07 04:37 | -3.48303 | -83.70030 | 33940 ft | 431 kts | 321° |
| 2026-05-07 04:37 | -3.43636 | -83.73761 | 33940 ft | 431 kts | 321° |
| 2026-05-07 04:38 | -3.38958 | -83.77477 | 33939 ft | 431 kts | 322° |
| 2026-05-07 04:38 | -3.34239 | -83.81111 | 33939 ft | 431 kts | 322° |
| 2026-05-07 04:39 | -3.29484 | -83.84778 | 33939 ft | 431 kts | 322° |
| 2026-05-07 04:39 | -3.24771 | -83.88412 | 33939 ft | 432 kts | 322° |
| 2026-05-07 04:40 | -3.20022 | -83.92074 | 33938 ft | 432 kts | 322° |
| 2026-05-07 04:40 | -3.15276 | -83.95733 | 33938 ft | 432 kts | 322° |
| 2026-05-07 04:41 | -3.10525 | -83.99396 | 33938 ft | 432 kts | 322° |
| 2026-05-07 04:41 | -3.05730 | -84.03091 | 33934 ft | 429 kts | 322° |
| 2026-05-07 04:42 | -3.01036 | -84.06709 | 33938 ft | 430 kts | 322° |
| 2026-05-07 04:42 | -2.96293 | -84.10364 | 33936 ft | 431 kts | 322° |
| 2026-05-07 04:43 | -2.91541 | -84.14025 | 33937 ft | 431 kts | 322° |
| 2026-05-07 04:43 | -2.86797 | -84.17681 | 33940 ft | 431 kts | 322° |
| 2026-05-07 04:44 | -2.82051 | -84.21336 | 33939 ft | 431 kts | 322° |
| 2026-05-07 04:44 | -2.77304 | -84.24993 | 33940 ft | 432 kts | 322° |
| 2026-05-07 04:45 | -2.72548 | -84.28656 | 33938 ft | 432 kts | 322° |
| 2026-05-07 04:45 | -2.67767 | -84.32339 | 33939 ft | 432 kts | 322° |
| 2026-05-07 04:46 | -2.63030 | -84.35986 | 33938 ft | 432 kts | 322° |
| 2026-05-07 04:46 | -2.58257 | -84.39661 | 33938 ft | 432 kts | 322° |
| 2026-05-07 04:47 | -2.53516 | -84.43311 | 33938 ft | 432 kts | 322° |
| 2026-05-07 04:47 | -2.48785 | -84.46953 | 33938 ft | 432 kts | 322° |
| 2026-05-07 04:48 | -2.44001 | -84.50635 | 33937 ft | 432 kts | 322° |
| 2026-05-07 04:48 | -2.39224 | -84.54312 | 33937 ft | 432 kts | 322° |
| 2026-05-07 04:49 | -2.34496 | -84.57951 | 33937 ft | 432 kts | 322° |
| 2026-05-07 04:49 | -2.29724 | -84.61623 | 33937 ft | 433 kts | 322° |
| 2026-05-07 04:50 | -2.24972 | -84.65279 | 33937 ft | 432 kts | 322° |
| 2026-05-07 04:50 | -2.20198 | -84.68953 | 33939 ft | 433 kts | 322° |
| 2026-05-07 04:51 | -2.15439 | -84.72613 | 33938 ft | 433 kts | 322° |
| 2026-05-07 04:51 | -2.10679 | -84.76275 | 33938 ft | 433 kts | 322° |
| 2026-05-07 04:52 | -2.05925 | -84.79932 | 33938 ft | 433 kts | 322° |
| 2026-05-07 04:52 | -2.01162 | -84.83595 | 33938 ft | 433 kts | 322° |
| 2026-05-07 04:53 | -1.96405 | -84.87254 | 33939 ft | 434 kts | 322° |
| 2026-05-07 04:53 | -1.91649 | -84.90912 | 33937 ft | 434 kts | 322° |
| 2026-05-07 04:54 | -1.86876 | -84.94582 | 33941 ft | 435 kts | 322° |
| 2026-05-07 04:54 | -1.82105 | -84.98251 | 33939 ft | 434 kts | 322° |
| 2026-05-07 04:55 | -1.77343 | -85.01913 | 33940 ft | 435 kts | 322° |
| 2026-05-07 04:55 | -1.72564 | -85.05587 | 33939 ft | 435 kts | 322° |
| 2026-05-07 04:56 | -1.67784 | -85.09261 | 33939 ft | 435 kts | 322° |
| 2026-05-07 04:56 | -1.63000 | -85.12939 | 33939 ft | 435 kts | 322° |
| 2026-05-07 04:57 | -1.58244 | -85.16600 | 33939 ft | 435 kts | 322° |
| 2026-05-07 04:57 | -1.53471 | -85.20277 | 33938 ft | 435 kts | 322° |
| 2026-05-07 04:58 | -1.48694 | -85.23955 | 33938 ft | 435 kts | 322° |
| 2026-05-07 04:58 | -1.43907 | -85.27644 | 33938 ft | 435 kts | 322° |
| 2026-05-07 04:59 | -1.39136 | -85.31318 | 33939 ft | 436 kts | 322° |
| 2026-05-07 04:59 | -1.34367 | -85.34991 | 33937 ft | 436 kts | 322° |
| 2026-05-07 05:00 | -1.29565 | -85.38688 | 33938 ft | 435 kts | 322° |
| 2026-05-07 05:00 | -1.24788 | -85.42368 | 33956 ft | 435 kts | 322° |
| 2026-05-07 05:01 | -1.20017 | -85.46041 | 34005 ft | 435 kts | 322° |
| 2026-05-07 05:01 | -1.15234 | -85.49725 | 34053 ft | 435 kts | 322° |
| 2026-05-07 05:02 | -1.10445 | -85.53413 | 34098 ft | 435 kts | 322° |
| 2026-05-07 05:02 | -1.05658 | -85.57099 | 34098 ft | 435 kts | 322° |
| 2026-05-07 05:03 | -1.00883 | -85.60777 | 34099 ft | 437 kts | 322° |
| 2026-05-07 05:03 | -0.96089 | -85.64468 | 34098 ft | 436 kts | 322° |
| 2026-05-07 05:04 | -0.91299 | -85.68155 | 34100 ft | 436 kts | 322° |
| 2026-05-07 05:04 | -0.86482 | -85.71864 | 34102 ft | 436 kts | 322° |
| 2026-05-07 05:05 | -0.81691 | -85.75552 | 34101 ft | 437 kts | 322° |
| 2026-05-07 05:05 | -0.76892 | -85.79246 | 34101 ft | 437 kts | 322° |
| 2026-05-07 05:06 | -0.72094 | -85.82939 | 34102 ft | 437 kts | 322° |
| 2026-05-07 05:06 | -0.67309 | -85.86623 | 34101 ft | 437 kts | 322° |
| 2026-05-07 05:07 | -0.62479 | -85.90340 | 34098 ft | 438 kts | 322° |
| 2026-05-07 05:07 | -0.57664 | -85.94046 | 34059 ft | 439 kts | 322° |
| 2026-05-07 05:08 | -0.52865 | -85.97739 | 34018 ft | 438 kts | 322° |
| 2026-05-07 05:08 | -0.48034 | -86.01458 | 33977 ft | 439 kts | 322° |
| 2026-05-07 05:09 | -0.43191 | -86.05186 | 33966 ft | 440 kts | 322° |
| 2026-05-07 05:09 | -0.38370 | -86.08897 | 33966 ft | 440 kts | 322° |
| 2026-05-07 05:10 | -0.33543 | -86.12611 | 33965 ft | 440 kts | 322° |
| 2026-05-07 05:10 | -0.28697 | -86.16341 | 33965 ft | 440 kts | 322° |
| 2026-05-07 05:11 | -0.23895 | -86.20038 | 33965 ft | 440 kts | 322° |
| 2026-05-07 05:11 | -0.19039 | -86.23776 | 33965 ft | 440 kts | 322° |
| 2026-05-07 05:12 | -0.14227 | -86.27479 | 33965 ft | 440 kts | 322° |
| 2026-05-07 05:12 | -0.09407 | -86.31189 | 33965 ft | 440 kts | 322° |
| 2026-05-07 05:13 | -0.04559 | -86.34921 | 33965 ft | 440 kts | 322° |
| 2026-05-07 05:13 | 0.00259 | -86.38629 | 33965 ft | 440 kts | 322° |
| 2026-05-07 05:14 | 0.05095 | -86.42352 | 33965 ft | 440 kts | 323° |
| 2026-05-07 05:14 | 0.09945 | -86.46085 | 33965 ft | 439 kts | 323° |
| 2026-05-07 05:15 | 0.14742 | -86.49777 | 33967 ft | 439 kts | 323° |
| 2026-05-07 05:15 | 0.19591 | -86.53509 | 33966 ft | 440 kts | 323° |
| 2026-05-07 05:16 | 0.24417 | -86.57224 | 33966 ft | 440 kts | 323° |
| 2026-05-07 05:16 | 0.29258 | -86.60950 | 33966 ft | 440 kts | 323° |
| 2026-05-07 05:17 | 0.34089 | -86.64668 | 33966 ft | 440 kts | 323° |
| 2026-05-07 05:17 | 0.38884 | -86.68359 | 33966 ft | 439 kts | 323° |
| 2026-05-07 05:18 | 0.43709 | -86.72073 | 33966 ft | 440 kts | 323° |
| 2026-05-07 05:18 | 0.48557 | -86.75806 | 33966 ft | 440 kts | 323° |
| 2026-05-07 05:19 | 0.53397 | -86.79532 | 33966 ft | 440 kts | 323° |
| 2026-05-07 05:19 | 0.58204 | -86.83232 | 33965 ft | 439 kts | 323° |
| 2026-05-07 05:20 | 0.63041 | -86.86955 | 33966 ft | 439 kts | 323° |
| 2026-05-07 05:20 | 0.67854 | -86.90661 | 33967 ft | 439 kts | 323° |
| 2026-05-07 05:21 | 0.75113 | -86.96249 | 33973 ft | 439 kts | 323° |
| 2026-05-07 05:22 | 0.79919 | -86.99949 | 33976 ft | 439 kts | 323° |
| 2026-05-07 05:22 | 0.84731 | -87.03654 | 33982 ft | 439 kts | 323° |
| 2026-05-07 05:23 | 0.89563 | -87.07374 | 33985 ft | 439 kts | 323° |
| 2026-05-07 05:23 | 0.94404 | -87.11101 | 33989 ft | 439 kts | 323° |
| 2026-05-07 05:24 | 0.99223 | -87.14812 | 33991 ft | 439 kts | 323° |
| 2026-05-07 05:24 | 1.04043 | -87.18523 | 33991 ft | 439 kts | 323° |
| 2026-05-07 05:25 | 1.08866 | -87.22238 | 33992 ft | 439 kts | 323° |
| 2026-05-07 05:25 | 1.13669 | -87.25937 | 33993 ft | 438 kts | 323° |
| 2026-05-07 05:26 | 1.18468 | -87.29632 | 33977 ft | 439 kts | 323° |
| 2026-05-07 05:26 | 1.23309 | -87.33360 | 33960 ft | 439 kts | 323° |
| 2026-05-07 05:27 | 1.28120 | -87.37065 | 33944 ft | 439 kts | 323° |
| 2026-05-07 05:27 | 1.32941 | -87.40778 | 33940 ft | 439 kts | 323° |
| 2026-05-07 05:28 | 1.37748 | -87.44481 | 33939 ft | 439 kts | 323° |
| 2026-05-07 05:28 | 1.42579 | -87.48202 | 33939 ft | 439 kts | 323° |
| 2026-05-07 05:29 | 1.47405 | -87.51911 | 33939 ft | 439 kts | 323° |
| 2026-05-07 05:29 | 1.52223 | -87.55615 | 33940 ft | 439 kts | 323° |
| 2026-05-07 05:30 | 1.57045 | -87.59322 | 33939 ft | 438 kts | 323° |
| 2026-05-07 05:30 | 1.61837 | -87.63007 | 33939 ft | 438 kts | 323° |
| 2026-05-07 05:31 | 1.66681 | -87.66731 | 33938 ft | 438 kts | 323° |
| 2026-05-07 05:31 | 1.71495 | -87.70432 | 33938 ft | 438 kts | 323° |
| 2026-05-07 05:32 | 1.76292 | -87.74122 | 33938 ft | 438 kts | 323° |
| 2026-05-07 05:32 | 1.81119 | -87.77834 | 33938 ft | 438 kts | 323° |
| 2026-05-07 05:33 | 1.85945 | -87.81545 | 33937 ft | 438 kts | 323° |
| 2026-05-07 05:33 | 1.90770 | -87.85258 | 33937 ft | 438 kts | 323° |
| 2026-05-07 05:34 | 1.95572 | -87.88951 | 33937 ft | 438 kts | 323° |
| 2026-05-07 05:34 | 2.00396 | -87.92662 | 33937 ft | 438 kts | 323° |
| 2026-05-07 05:35 | 2.05206 | -87.96362 | 33937 ft | 438 kts | 323° |
| 2026-05-07 05:35 | 2.10017 | -88.00064 | 33937 ft | 438 kts | 323° |
| 2026-05-07 05:36 | 2.14829 | -88.03767 | 33940 ft | 438 kts | 323° |
| 2026-05-07 05:36 | 2.19665 | -88.07488 | 33940 ft | 438 kts | 323° |
| 2026-05-07 05:37 | 2.24461 | -88.11179 | 33940 ft | 439 kts | 323° |
| 2026-05-07 05:37 | 2.29300 | -88.14903 | 33940 ft | 438 kts | 323° |
| 2026-05-07 05:38 | 2.34090 | -88.18591 | 33939 ft | 439 kts | 323° |
| 2026-05-07 05:38 | 2.38911 | -88.22301 | 33939 ft | 439 kts | 323° |
| 2026-05-07 05:39 | 2.43744 | -88.26022 | 33939 ft | 440 kts | 323° |
| 2026-05-07 05:39 | 2.48588 | -88.29752 | 33939 ft | 440 kts | 323° |
| 2026-05-07 05:40 | 2.53397 | -88.33455 | 33939 ft | 440 kts | 323° |
| 2026-05-07 05:40 | 2.58259 | -88.37199 | 33939 ft | 440 kts | 323° |
| 2026-05-07 05:41 | 2.63076 | -88.40909 | 33939 ft | 440 kts | 323° |
| 2026-05-07 05:41 | 2.67916 | -88.44636 | 33939 ft | 441 kts | 323° |
| 2026-05-07 05:42 | 2.72771 | -88.48377 | 33938 ft | 441 kts | 323° |
| 2026-05-07 05:42 | 2.77611 | -88.52106 | 33939 ft | 441 kts | 323° |
| 2026-05-07 05:43 | 2.82450 | -88.55834 | 33939 ft | 441 kts | 323° |
| 2026-05-07 05:43 | 2.87318 | -88.59585 | 33939 ft | 442 kts | 323° |
| 2026-05-07 05:44 | 2.92143 | -88.63303 | 33943 ft | 442 kts | 323° |
| 2026-05-07 05:44 | 2.96999 | -88.67046 | 33948 ft | 442 kts | 323° |
| 2026-05-07 05:45 | 3.01852 | -88.70785 | 33956 ft | 443 kts | 323° |
| 2026-05-07 05:45 | 3.06735 | -88.74551 | 33961 ft | 443 kts | 323° |
| 2026-05-07 05:46 | 3.11573 | -88.78281 | 33963 ft | 443 kts | 323° |
| 2026-05-07 05:46 | 3.16457 | -88.82047 | 33966 ft | 443 kts | 323° |
| 2026-05-07 05:47 | 3.21326 | -88.85802 | 33978 ft | 443 kts | 323° |
| 2026-05-07 05:47 | 3.26169 | -88.89537 | 33989 ft | 443 kts | 323° |
| 2026-05-07 05:48 | 3.31044 | -88.93297 | 34001 ft | 443 kts | 323° |
| 2026-05-07 05:48 | 3.35907 | -88.97048 | 34012 ft | 444 kts | 323° |
| 2026-05-07 05:49 | 3.40798 | -89.00829 | 34022 ft | 444 kts | 323° |
| 2026-05-07 05:49 | 3.45698 | -89.04606 | 34035 ft | 444 kts | 323° |
| 2026-05-07 05:50 | 3.50591 | -89.08381 | 34036 ft | 444 kts | 323° |
| 2026-05-07 05:50 | 3.55496 | -89.12167 | 34036 ft | 444 kts | 323° |
| 2026-05-07 05:51 | 3.60400 | -89.15951 | 34036 ft | 445 kts | 323° |
| 2026-05-07 05:51 | 3.65320 | -89.19750 | 34036 ft | 445 kts | 323° |
| 2026-05-07 05:52 | 3.70234 | -89.23546 | 34036 ft | 445 kts | 323° |
| 2026-05-07 05:52 | 3.75137 | -89.27331 | 34036 ft | 446 kts | 323° |
| 2026-05-07 05:53 | 3.80108 | -89.31171 | 34036 ft | 446 kts | 323° |
| 2026-05-07 05:53 | 3.85067 | -89.35003 | 34036 ft | 446 kts | 323° |
| 2026-05-07 05:54 | 3.90001 | -89.38815 | 34036 ft | 447 kts | 323° |
| 2026-05-07 05:54 | 3.94921 | -89.42617 | 34036 ft | 447 kts | 323° |
| 2026-05-07 05:55 | 3.99893 | -89.46461 | 34036 ft | 447 kts | 323° |
| 2026-05-07 05:55 | 4.04789 | -89.50245 | 34039 ft | 449 kts | 323° |
| 2026-05-07 05:56 | 4.09752 | -89.54082 | 34036 ft | 449 kts | 323° |
| 2026-05-07 05:56 | 4.14672 | -89.57886 | 34037 ft | 449 kts | 323° |
| 2026-05-07 05:57 | 4.19620 | -89.61713 | 34037 ft | 448 kts | 323° |
| 2026-05-07 05:57 | 4.24571 | -89.65543 | 34037 ft | 449 kts | 323° |
| 2026-05-07 05:58 | 4.29533 | -89.69382 | 34036 ft | 449 kts | 323° |
| 2026-05-07 05:58 | 4.34448 | -89.73185 | 34036 ft | 449 kts | 323° |
| 2026-05-07 05:59 | 4.39387 | -89.77007 | 34036 ft | 449 kts | 323° |
| 2026-05-07 05:59 | 4.44339 | -89.80840 | 34036 ft | 449 kts | 323° |
| 2026-05-07 06:00 | 4.49273 | -89.84660 | 34036 ft | 449 kts | 323° |
| 2026-05-07 06:00 | 4.54190 | -89.88467 | 34037 ft | 450 kts | 323° |
| 2026-05-07 06:01 | 4.59153 | -89.92311 | 34036 ft | 449 kts | 323° |
| 2026-05-07 06:01 | 4.64094 | -89.96138 | 34036 ft | 450 kts | 323° |
| 2026-05-07 06:02 | 4.69033 | -89.99964 | 34036 ft | 450 kts | 323° |
| 2026-05-07 06:02 | 4.73956 | -90.03779 | 34037 ft | 450 kts | 323° |
| 2026-05-07 06:03 | 4.78905 | -90.07615 | 34039 ft | 450 kts | 323° |
| 2026-05-07 06:03 | 4.83868 | -90.11462 | 34040 ft | 450 kts | 323° |
| 2026-05-07 06:04 | 4.88793 | -90.15280 | 34042 ft | 450 kts | 323° |
| 2026-05-07 06:04 | 4.93741 | -90.19117 | 34043 ft | 450 kts | 323° |
| 2026-05-07 06:05 | 4.98669 | -90.22939 | 34045 ft | 450 kts | 323° |
| 2026-05-07 06:05 | 5.03624 | -90.26783 | 34046 ft | 451 kts | 323° |
| 2026-05-07 06:06 | 5.08565 | -90.30617 | 34046 ft | 451 kts | 323° |
| 2026-05-07 06:06 | 5.13329 | -90.34314 | 34046 ft | 451 kts | 323° |
| 2026-05-07 06:07 | 5.18273 | -90.38157 | 33969 ft | 442 kts | 323° |
| 2026-05-07 06:07 | 5.20657 | -90.40005 | 34095 ft | 436 kts | 327° |
| 2026-05-07 06:07 | 5.23095 | -90.41861 | 34090 ft | 446 kts | 323° |
| 2026-05-07 06:08 | 5.28069 | -90.45751 | 34016 ft | 454 kts | 323° |
| 2026-05-07 06:08 | 5.33057 | -90.49631 | 34050 ft | 456 kts | 323° |
| 2026-05-07 06:09 | 5.38020 | -90.53487 | 34049 ft | 451 kts | 323° |
| 2026-05-07 06:09 | 5.42973 | -90.57335 | 34055 ft | 452 kts | 323° |
| 2026-05-07 06:10 | 5.47939 | -90.61195 | 34056 ft | 452 kts | 323° |
| 2026-05-07 06:10 | 5.52928 | -90.65073 | 34056 ft | 452 kts | 323° |
| 2026-05-07 06:11 | 5.57894 | -90.68930 | 34054 ft | 452 kts | 323° |
| 2026-05-07 06:11 | 5.62854 | -90.72784 | 34054 ft | 452 kts | 323° |
| 2026-05-07 06:12 | 5.67791 | -90.76620 | 34054 ft | 452 kts | 323° |
| 2026-05-07 06:12 | 5.72769 | -90.80489 | 34053 ft | 453 kts | 323° |
| 2026-05-07 06:13 | 5.77766 | -90.84375 | 34055 ft | 453 kts | 323° |
| 2026-05-07 06:13 | 5.82768 | -90.88264 | 34054 ft | 453 kts | 323° |
| 2026-05-07 06:14 | 5.87744 | -90.92134 | 34055 ft | 453 kts | 323° |
| 2026-05-07 06:14 | 5.92720 | -90.96004 | 34053 ft | 457 kts | 322° |
| 2026-05-07 06:15 | 5.97775 | -90.99937 | 34047 ft | 462 kts | 322° |
| 2026-05-07 06:15 | 6.02858 | -91.03893 | 34028 ft | 461 kts | 322° |
| 2026-05-07 06:16 | 6.07915 | -91.07832 | 34014 ft | 463 kts | 322° |
| 2026-05-07 06:16 | 6.13033 | -91.11817 | 34000 ft | 463 kts | 322° |
| 2026-05-07 06:17 | 6.18136 | -91.15791 | 33987 ft | 464 kts | 322° |
| 2026-05-07 06:17 | 6.23191 | -91.19730 | 33977 ft | 465 kts | 322° |
| 2026-05-07 06:18 | 6.28295 | -91.23707 | 33972 ft | 465 kts | 322° |
| 2026-05-07 06:18 | 6.33410 | -91.27694 | 33971 ft | 465 kts | 322° |
| 2026-05-07 06:19 | 6.38507 | -91.31668 | 33973 ft | 466 kts | 322° |
| 2026-05-07 06:19 | 6.43621 | -91.35657 | 33973 ft | 466 kts | 322° |
| 2026-05-07 06:20 | 6.48723 | -91.39636 | 33973 ft | 466 kts | 322° |
| 2026-05-07 06:20 | 6.53820 | -91.43613 | 33974 ft | 466 kts | 322° |
| 2026-05-07 06:21 | 6.58908 | -91.47585 | 33973 ft | 466 kts | 322° |
| 2026-05-07 06:21 | 6.64011 | -91.51569 | 33972 ft | 466 kts | 322° |
| 2026-05-07 06:22 | 6.69124 | -91.55562 | 33970 ft | 466 kts | 322° |
| 2026-05-07 06:22 | 6.76774 | -91.61538 | 33969 ft | 466 kts | 322° |
| 2026-05-07 06:23 | 6.81872 | -91.65521 | 33968 ft | 466 kts | 322° |
| 2026-05-07 06:23 | 6.86980 | -91.69514 | 33966 ft | 466 kts | 322° |
| 2026-05-07 06:24 | 6.92088 | -91.73508 | 33965 ft | 464 kts | 322° |
| 2026-05-07 06:24 | 6.97186 | -91.77496 | 33967 ft | 465 kts | 322° |
| 2026-05-07 06:25 | 7.02276 | -91.81477 | 33967 ft | 465 kts | 322° |
| 2026-05-07 06:25 | 7.07367 | -91.85461 | 33968 ft | 465 kts | 322° |
| 2026-05-07 06:26 | 7.12460 | -91.89448 | 33962 ft | 463 kts | 322° |
| 2026-05-07 06:26 | 7.17519 | -91.93409 | 33965 ft | 464 kts | 322° |
| 2026-05-07 06:27 | 7.22621 | -91.97405 | 33960 ft | 464 kts | 322° |
| 2026-05-07 06:27 | 7.27702 | -92.01386 | 33954 ft | 464 kts | 322° |
| 2026-05-07 06:28 | 7.32789 | -92.05373 | 33951 ft | 465 kts | 322° |
| 2026-05-07 06:28 | 7.37922 | -92.09396 | 33948 ft | 464 kts | 322° |
| 2026-05-07 06:29 | 7.42989 | -92.13370 | 33943 ft | 464 kts | 322° |
| 2026-05-07 06:29 | 7.48069 | -92.17355 | 33939 ft | 464 kts | 322° |
| 2026-05-07 06:30 | 7.53156 | -92.21345 | 33939 ft | 464 kts | 322° |
| 2026-05-07 06:30 | 7.58219 | -92.25320 | 33940 ft | 464 kts | 322° |
| 2026-05-07 06:31 | 7.63320 | -92.29324 | 33940 ft | 464 kts | 322° |
| 2026-05-07 06:31 | 7.68394 | -92.33310 | 33940 ft | 464 kts | 322° |
| 2026-05-07 06:32 | 7.73467 | -92.37295 | 33940 ft | 464 kts | 322° |
| 2026-05-07 06:32 | 7.78522 | -92.41267 | 33941 ft | 464 kts | 322° |
| 2026-05-07 06:33 | 7.83604 | -92.45262 | 33941 ft | 464 kts | 322° |
| 2026-05-07 06:33 | 7.88668 | -92.49244 | 33941 ft | 464 kts | 322° |
| 2026-05-07 06:34 | 7.93746 | -92.53239 | 33942 ft | 464 kts | 322° |
| 2026-05-07 06:34 | 7.98831 | -92.57240 | 33942 ft | 464 kts | 322° |
| 2026-05-07 06:35 | 8.03888 | -92.61221 | 33939 ft | 461 kts | 322° |
| 2026-05-07 06:35 | 8.08947 | -92.65204 | 33943 ft | 462 kts | 322° |
| 2026-05-07 06:36 | 8.13985 | -92.69172 | 33937 ft | 462 kts | 322° |
| 2026-05-07 06:36 | 8.19014 | -92.73134 | 33937 ft | 462 kts | 322° |
| 2026-05-07 06:37 | 8.24134 | -92.77169 | 33937 ft | 462 kts | 322° |
| 2026-05-07 06:37 | 8.29177 | -92.81145 | 33938 ft | 462 kts | 322° |
| 2026-05-07 06:38 | 8.34234 | -92.85133 | 33938 ft | 462 kts | 322° |
| 2026-05-07 06:38 | 8.39277 | -92.89111 | 33938 ft | 462 kts | 322° |
| 2026-05-07 06:39 | 8.44309 | -92.93082 | 33943 ft | 460 kts | 322° |
| 2026-05-07 06:39 | 8.49328 | -92.97045 | 33950 ft | 461 kts | 322° |
| 2026-05-07 06:40 | 8.54377 | -93.01032 | 33955 ft | 461 kts | 322° |
| 2026-05-07 06:40 | 8.59404 | -93.05003 | 33961 ft | 461 kts | 322° |
| 2026-05-07 06:41 | 8.64417 | -93.08965 | 33967 ft | 461 kts | 322° |
| 2026-05-07 06:41 | 8.69467 | -93.12959 | 33973 ft | 461 kts | 322° |
| 2026-05-07 06:42 | 8.74486 | -93.16927 | 33972 ft | 460 kts | 322° |
| 2026-05-07 06:42 | 8.79497 | -93.20892 | 33974 ft | 460 kts | 322° |
| 2026-05-07 06:43 | 8.84534 | -93.24877 | 33973 ft | 460 kts | 322° |
| 2026-05-07 06:43 | 8.89555 | -93.28853 | 33974 ft | 460 kts | 322° |
| 2026-05-07 06:44 | 8.94566 | -93.32822 | 33973 ft | 458 kts | 322° |
| 2026-05-07 06:44 | 8.99592 | -93.36803 | 33974 ft | 459 kts | 322° |
| 2026-05-07 06:45 | 9.04574 | -93.40752 | 33974 ft | 459 kts | 322° |
| 2026-05-07 06:45 | 9.09599 | -93.44736 | 33974 ft | 457 kts | 322° |
| 2026-05-07 06:46 | 9.14639 | -93.48733 | 33972 ft | 458 kts | 322° |
| 2026-05-07 06:46 | 9.19611 | -93.52677 | 33971 ft | 456 kts | 322° |
| 2026-05-07 06:47 | 9.24611 | -93.56646 | 33973 ft | 457 kts | 322° |
| 2026-05-07 06:47 | 9.29602 | -93.60609 | 33971 ft | 455 kts | 322° |
| 2026-05-07 06:48 | 9.34582 | -93.64564 | 33973 ft | 456 kts | 322° |
| 2026-05-07 06:48 | 9.39594 | -93.68546 | 33970 ft | 454 kts | 322° |
| 2026-05-07 06:49 | 9.44555 | -93.72490 | 33972 ft | 455 kts | 322° |
| 2026-05-07 06:49 | 9.49516 | -93.76435 | 33973 ft | 453 kts | 322° |
| 2026-05-07 06:50 | 9.54472 | -93.80378 | 33978 ft | 454 kts | 322° |
| 2026-05-07 06:50 | 9.59411 | -93.84308 | 33979 ft | 453 kts | 322° |
| 2026-05-07 06:51 | 9.64367 | -93.88254 | 33982 ft | 453 kts | 322° |
| 2026-05-07 06:51 | 9.69325 | -93.92201 | 33981 ft | 453 kts | 322° |
| 2026-05-07 06:52 | 9.74260 | -93.96133 | 33982 ft | 452 kts | 322° |
| 2026-05-07 06:52 | 9.79198 | -94.00070 | 33982 ft | 451 kts | 322° |
| 2026-05-07 06:53 | 9.84096 | -94.03978 | 33982 ft | 452 kts | 322° |
| 2026-05-07 06:53 | 9.89028 | -94.07914 | 33982 ft | 452 kts | 322° |
| 2026-05-07 06:54 | 9.93956 | -94.11848 | 33982 ft | 452 kts | 322° |
| 2026-05-07 06:54 | 9.98881 | -94.15782 | 33982 ft | 452 kts | 322° |
| 2026-05-07 06:55 | 10.03777 | -94.19694 | 33982 ft | 452 kts | 322° |
| 2026-05-07 06:55 | 10.08718 | -94.23644 | 33982 ft | 452 kts | 322° |
| 2026-05-07 06:56 | 10.13651 | -94.27588 | 33986 ft | 452 kts | 322° |
| 2026-05-07 06:56 | 10.18557 | -94.31512 | 33992 ft | 452 kts | 322° |
| 2026-05-07 06:57 | 10.23499 | -94.35468 | 33999 ft | 453 kts | 322° |
| 2026-05-07 06:57 | 10.28451 | -94.39432 | 33999 ft | 453 kts | 322° |
| 2026-05-07 06:58 | 10.33376 | -94.43377 | 34000 ft | 453 kts | 322° |
| 2026-05-07 06:58 | 10.38354 | -94.47366 | 34000 ft | 453 kts | 322° |
| 2026-05-07 06:59 | 10.43306 | -94.51335 | 34000 ft | 453 kts | 322° |
| 2026-05-07 06:59 | 10.48249 | -94.55299 | 34001 ft | 454 kts | 322° |
| 2026-05-07 07:00 | 10.53222 | -94.59289 | 34000 ft | 454 kts | 322° |
| 2026-05-07 07:00 | 10.58185 | -94.63284 | 34012 ft | 453 kts | 321° |
| 2026-05-07 07:01 | 10.63121 | -94.67250 | 33999 ft | 454 kts | 322° |
| 2026-05-07 07:01 | 10.68048 | -94.71197 | 33999 ft | 454 kts | 322° |
| 2026-05-07 07:02 | 10.73021 | -94.75191 | 33999 ft | 455 kts | 322° |
| 2026-05-07 07:02 | 10.77966 | -94.79166 | 33994 ft | 455 kts | 322° |
| 2026-05-07 07:03 | 10.82908 | -94.83141 | 33988 ft | 455 kts | 322° |
| 2026-05-07 07:03 | 10.87861 | -94.87126 | 33981 ft | 455 kts | 322° |
| 2026-05-07 07:04 | 10.92805 | -94.91106 | 33978 ft | 455 kts | 322° |
| 2026-05-07 07:04 | 10.97751 | -94.95090 | 33977 ft | 455 kts | 322° |
| 2026-05-07 07:05 | 11.02669 | -94.99052 | 33977 ft | 456 kts | 322° |
| 2026-05-07 07:05 | 11.07628 | -95.03050 | 33973 ft | 456 kts | 322° |
| 2026-05-07 07:06 | 11.12602 | -95.07061 | 33971 ft | 456 kts | 322° |
| 2026-05-07 07:06 | 11.17545 | -95.11049 | 33972 ft | 456 kts | 322° |
| 2026-05-07 07:07 | 11.22490 | -95.15040 | 33972 ft | 456 kts | 322° |
| 2026-05-07 07:07 | 11.27446 | -95.19042 | 33972 ft | 455 kts | 322° |
| 2026-05-07 07:08 | 11.32389 | -95.23036 | 33972 ft | 455 kts | 322° |
| 2026-05-07 07:08 | 11.37332 | -95.27032 | 33972 ft | 455 kts | 322° |
| 2026-05-07 07:09 | 11.42272 | -95.31027 | 33971 ft | 456 kts | 322° |
| 2026-05-07 07:09 | 11.47226 | -95.35033 | 33967 ft | 456 kts | 322° |
| 2026-05-07 07:10 | 11.52170 | -95.39036 | 33965 ft | 456 kts | 322° |
| 2026-05-07 07:10 | 11.57125 | -95.43048 | 33964 ft | 456 kts | 322° |
| 2026-05-07 07:11 | 11.62065 | -95.47050 | 33964 ft | 456 kts | 322° |
| 2026-05-07 07:11 | 11.67017 | -95.51064 | 33965 ft | 456 kts | 322° |
| 2026-05-07 07:12 | 11.71979 | -95.55088 | 33964 ft | 456 kts | 322° |
| 2026-05-07 07:12 | 11.76949 | -95.59119 | 33965 ft | 456 kts | 322° |
| 2026-05-07 07:13 | 11.81885 | -95.63126 | 33965 ft | 456 kts | 322° |
| 2026-05-07 07:13 | 11.86808 | -95.67123 | 33962 ft | 456 kts | 322° |
| 2026-05-07 07:14 | 11.91788 | -95.71169 | 33963 ft | 457 kts | 322° |
| 2026-05-07 07:14 | 11.96732 | -95.75188 | 33962 ft | 456 kts | 322° |
| 2026-05-07 07:15 | 12.01656 | -95.79192 | 33963 ft | 456 kts | 322° |
| 2026-05-07 07:15 | 12.06610 | -95.83222 | 33963 ft | 456 kts | 322° |
| 2026-05-07 07:16 | 12.11561 | -95.87252 | 33962 ft | 456 kts | 322° |
| 2026-05-07 07:16 | 12.16506 | -95.91280 | 33962 ft | 456 kts | 322° |
| 2026-05-07 07:17 | 12.21442 | -95.95302 | 33963 ft | 456 kts | 322° |
| 2026-05-07 07:17 | 12.26409 | -95.99351 | 33963 ft | 456 kts | 322° |
| 2026-05-07 07:18 | 12.31356 | -96.03385 | 33964 ft | 456 kts | 322° |
| 2026-05-07 07:18 | 12.36276 | -96.07400 | 33965 ft | 456 kts | 322° |
| 2026-05-07 07:19 | 12.41223 | -96.11440 | 33967 ft | 456 kts | 322° |
| 2026-05-07 07:19 | 12.46158 | -96.15470 | 33969 ft | 456 kts | 322° |
| 2026-05-07 07:20 | 12.51111 | -96.19518 | 33971 ft | 455 kts | 322° |
| 2026-05-07 07:20 | 12.56044 | -96.23551 | 33972 ft | 455 kts | 322° |
| 2026-05-07 07:21 | 12.60957 | -96.27571 | 33973 ft | 455 kts | 322° |
| 2026-05-07 07:21 | 12.65897 | -96.31614 | 33973 ft | 455 kts | 322° |
| 2026-05-07 07:22 | 12.70825 | -96.35650 | 33973 ft | 455 kts | 322° |
| 2026-05-07 07:22 | 12.75747 | -96.39682 | 33974 ft | 455 kts | 322° |
| 2026-05-07 07:23 | 12.80644 | -96.43697 | 33974 ft | 454 kts | 322° |
| 2026-05-07 07:23 | 12.85573 | -96.47740 | 33974 ft | 454 kts | 322° |
| 2026-05-07 07:24 | 12.90470 | -96.51759 | 33974 ft | 454 kts | 322° |
| 2026-05-07 07:24 | 12.95395 | -96.55801 | 33974 ft | 454 kts | 322° |
| 2026-05-07 07:25 | 13.02777 | -96.61867 | 33974 ft | 454 kts | 322° |
| 2026-05-07 07:26 | 13.07677 | -96.65895 | 33972 ft | 453 kts | 322° |
| 2026-05-07 07:26 | 13.12585 | -96.69932 | 33972 ft | 453 kts | 322° |
| 2026-05-07 07:27 | 13.17470 | -96.73952 | 33971 ft | 453 kts | 322° |
| 2026-05-07 07:27 | 13.22402 | -96.78013 | 33972 ft | 453 kts | 322° |
| 2026-05-07 07:28 | 13.27284 | -96.82035 | 33972 ft | 453 kts | 322° |
| 2026-05-07 07:28 | 13.32170 | -96.86063 | 33972 ft | 453 kts | 322° |
| 2026-05-07 07:29 | 13.37073 | -96.90105 | 33972 ft | 453 kts | 322° |
| 2026-05-07 07:29 | 13.41985 | -96.94159 | 33972 ft | 453 kts | 322° |
| 2026-05-07 07:30 | 13.46840 | -96.98167 | 33974 ft | 452 kts | 322° |
| 2026-05-07 07:30 | 13.51752 | -97.02226 | 33982 ft | 452 kts | 322° |
| 2026-05-07 07:31 | 13.56606 | -97.06237 | 33989 ft | 452 kts | 322° |
| 2026-05-07 07:31 | 13.61505 | -97.10287 | 33997 ft | 452 kts | 322° |
| 2026-05-07 07:32 | 13.66370 | -97.14314 | 34005 ft | 451 kts | 322° |
| 2026-05-07 07:32 | 13.71260 | -97.18362 | 34013 ft | 451 kts | 322° |
| 2026-05-07 07:33 | 13.76127 | -97.22379 | 34018 ft | 451 kts | 322° |
| 2026-05-07 07:33 | 13.80990 | -97.26383 | 34018 ft | 451 kts | 322° |
| 2026-05-07 07:34 | 13.85872 | -97.30406 | 34018 ft | 450 kts | 322° |
| 2026-05-07 07:34 | 13.90750 | -97.34428 | 34018 ft | 450 kts | 322° |
| 2026-05-07 07:35 | 13.95615 | -97.38441 | 34018 ft | 450 kts | 322° |
| 2026-05-07 07:35 | 14.00476 | -97.42453 | 34018 ft | 449 kts | 322° |
| 2026-05-07 07:36 | 14.05328 | -97.46461 | 34018 ft | 448 kts | 322° |
| 2026-05-07 07:36 | 14.10189 | -97.50478 | 34018 ft | 449 kts | 322° |
| 2026-05-07 07:37 | 14.15033 | -97.54482 | 34019 ft | 449 kts | 322° |
| 2026-05-07 07:37 | 14.19894 | -97.58503 | 34019 ft | 448 kts | 322° |
| 2026-05-07 07:38 | 14.24757 | -97.62528 | 34019 ft | 448 kts | 322° |
| 2026-05-07 07:38 | 14.29613 | -97.66550 | 34020 ft | 448 kts | 322° |
| 2026-05-07 07:39 | 14.34436 | -97.70547 | 34023 ft | 448 kts | 322° |
| 2026-05-07 07:39 | 14.39290 | -97.74571 | 34025 ft | 448 kts | 322° |
| 2026-05-07 07:40 | 14.44130 | -97.78587 | 34027 ft | 448 kts | 322° |
| 2026-05-07 07:40 | 14.48993 | -97.82623 | 34027 ft | 448 kts | 322° |
| 2026-05-07 07:41 | 14.53821 | -97.86633 | 34027 ft | 448 kts | 322° |
| 2026-05-07 07:41 | 14.58676 | -97.90668 | 34027 ft | 448 kts | 322° |
| 2026-05-07 07:42 | 14.63485 | -97.94666 | 34026 ft | 448 kts | 322° |
| 2026-05-07 07:42 | 14.68323 | -97.98692 | 34023 ft | 448 kts | 322° |
| 2026-05-07 07:43 | 14.73168 | -98.02725 | 34019 ft | 447 kts | 322° |
| 2026-05-07 07:43 | 14.77981 | -98.06735 | 34017 ft | 447 kts | 322° |
| 2026-05-07 07:44 | 14.82799 | -98.10751 | 34013 ft | 447 kts | 322° |
| 2026-05-07 07:44 | 14.87616 | -98.14768 | 34010 ft | 446 kts | 322° |
| 2026-05-07 07:45 | 14.92436 | -98.18790 | 34008 ft | 446 kts | 322° |
| 2026-05-07 07:45 | 14.97270 | -98.22826 | 34008 ft | 446 kts | 322° |
| 2026-05-07 07:46 | 15.01812 | -98.26620 | 34008 ft | 446 kts | 322° |
| 2026-05-07 07:46 | 15.06617 | -98.30637 | 34008 ft | 446 kts | 322° |
| 2026-05-07 07:47 | 15.11429 | -98.34663 | 34009 ft | 445 kts | 322° |
| 2026-05-07 07:47 | 15.16240 | -98.38689 | 34009 ft | 445 kts | 322° |
| 2026-05-07 07:48 | 15.21051 | -98.42718 | 34009 ft | 445 kts | 322° |
| 2026-05-07 07:48 | 15.25845 | -98.46735 | 34009 ft | 445 kts | 322° |
| 2026-05-07 07:49 | 15.30636 | -98.50751 | 34009 ft | 445 kts | 321° |
| 2026-05-07 07:49 | 15.35436 | -98.54778 | 34009 ft | 445 kts | 321° |
| 2026-05-07 07:50 | 15.40225 | -98.58799 | 34009 ft | 445 kts | 321° |
| 2026-05-07 07:50 | 15.44990 | -98.62801 | 34009 ft | 445 kts | 321° |
| 2026-05-07 07:51 | 15.49812 | -98.66854 | 34009 ft | 445 kts | 321° |
| 2026-05-07 07:51 | 15.54602 | -98.70883 | 34010 ft | 445 kts | 321° |
| 2026-05-07 07:52 | 15.59363 | -98.74890 | 34015 ft | 444 kts | 321° |
| 2026-05-07 07:52 | 15.64172 | -98.78939 | 34021 ft | 444 kts | 321° |
| 2026-05-07 07:53 | 15.68946 | -98.82962 | 34026 ft | 444 kts | 321° |
| 2026-05-07 07:53 | 15.73716 | -98.86983 | 34027 ft | 444 kts | 321° |
| 2026-05-07 07:54 | 15.78495 | -98.91015 | 34022 ft | 444 kts | 321° |
| 2026-05-07 07:54 | 15.83281 | -98.95055 | 34012 ft | 445 kts | 321° |
| 2026-05-07 07:55 | 15.88058 | -98.99091 | 34000 ft | 444 kts | 321° |
| 2026-05-07 07:55 | 15.92843 | -99.03135 | 33989 ft | 444 kts | 321° |
| 2026-05-07 07:56 | 15.97606 | -99.07163 | 33979 ft | 444 kts | 321° |
| 2026-05-07 07:56 | 16.02387 | -99.11209 | 33968 ft | 444 kts | 321° |
| 2026-05-07 07:57 | 16.07138 | -99.15233 | 33963 ft | 444 kts | 321° |
| 2026-05-07 07:57 | 16.11943 | -99.19307 | 33963 ft | 444 kts | 320° |
| 2026-05-07 07:58 | 16.16638 | -99.23405 | 33962 ft | 443 kts | 320° |
| 2026-05-07 07:58 | 16.21344 | -99.27523 | 33958 ft | 444 kts | 320° |
| 2026-05-07 07:59 | 16.26048 | -99.31641 | 33953 ft | 444 kts | 320° |
| 2026-05-07 07:59 | 16.30787 | -99.35792 | 33947 ft | 444 kts | 320° |
| 2026-05-07 08:00 | 16.35475 | -99.39900 | 33944 ft | 444 kts | 320° |
| 2026-05-07 08:00 | 16.40188 | -99.44034 | 33944 ft | 444 kts | 320° |
| 2026-05-07 08:01 | 16.44883 | -99.48154 | 33944 ft | 444 kts | 320° |
| 2026-05-07 08:01 | 16.49602 | -99.52299 | 33944 ft | 444 kts | 320° |
| 2026-05-07 08:02 | 16.54314 | -99.56439 | 33944 ft | 444 kts | 320° |
| 2026-05-07 08:02 | 16.59046 | -99.60599 | 34689 ft | 446 kts | 319° |
| 2026-05-07 08:02 | 16.61407 | -99.62676 | 35377 ft | 444 kts | 319° |
| 2026-05-07 08:03 | 16.63739 | -99.64728 | 35891 ft | 443 kts | 319° |
| 2026-05-07 08:03 | 16.68456 | -99.68882 | 35944 ft | 441 kts | 318° |
| 2026-05-07 08:04 | 16.73117 | -99.72989 | 35951 ft | 440 kts | 318° |
| 2026-05-07 08:04 | 16.77805 | -99.77068 | 35953 ft | 441 kts | 319° |
| 2026-05-07 08:05 | 16.82549 | -99.81100 | 35954 ft | 441 kts | 319° |
| 2026-05-07 08:05 | 16.87310 | -99.85155 | 35955 ft | 441 kts | 319° |
| 2026-05-07 08:06 | 16.92038 | -99.89185 | 35955 ft | 441 kts | 319° |
| 2026-05-07 08:06 | 16.96783 | -99.93231 | 35955 ft | 441 kts | 319° |
| 2026-05-07 08:07 | 17.01502 | -99.97259 | 35955 ft | 441 kts | 319° |
| 2026-05-07 08:07 | 17.06243 | -100.01307 | 35954 ft | 442 kts | 319° |
| 2026-05-07 08:08 | 17.10996 | -100.05370 | 35954 ft | 443 kts | 319° |
| 2026-05-07 08:08 | 17.15725 | -100.09414 | 35952 ft | 442 kts | 319° |
| 2026-05-07 08:09 | 17.20483 | -100.13486 | 35953 ft | 443 kts | 319° |
| 2026-05-07 08:09 | 17.25227 | -100.17548 | 35953 ft | 443 kts | 319° |
| 2026-05-07 08:10 | 17.29999 | -100.21634 | 35954 ft | 443 kts | 319° |
| 2026-05-07 08:10 | 17.34787 | -100.25731 | 35965 ft | 443 kts | 319° |
| 2026-05-07 08:11 | 17.39550 | -100.29810 | 35976 ft | 443 kts | 319° |
| 2026-05-07 08:11 | 17.44277 | -100.33868 | 35987 ft | 443 kts | 319° |
| 2026-05-07 08:12 | 17.49024 | -100.37948 | 35989 ft | 443 kts | 319° |
| 2026-05-07 08:12 | 17.53776 | -100.42033 | 35989 ft | 443 kts | 318° |
| 2026-05-07 08:13 | 17.58522 | -100.46118 | 35989 ft | 443 kts | 318° |
| 2026-05-07 08:13 | 17.63277 | -100.50213 | 35989 ft | 443 kts | 318° |
| 2026-05-07 08:14 | 17.68018 | -100.54298 | 35989 ft | 443 kts | 318° |
| 2026-05-07 08:14 | 17.72767 | -100.58395 | 35989 ft | 443 kts | 318° |
| 2026-05-07 08:15 | 17.77511 | -100.62489 | 35989 ft | 443 kts | 318° |
| 2026-05-07 08:15 | 17.82259 | -100.66586 | 35993 ft | 443 kts | 318° |
| 2026-05-07 08:16 | 17.87017 | -100.70696 | 35993 ft | 443 kts | 318° |
| 2026-05-07 08:16 | 17.91749 | -100.74786 | 35993 ft | 443 kts | 318° |
| 2026-05-07 08:17 | 17.96490 | -100.78886 | 36002 ft | 443 kts | 318° |
| 2026-05-07 08:17 | 18.01232 | -100.82986 | 36013 ft | 443 kts | 318° |
| 2026-05-07 08:18 | 18.05971 | -100.87088 | 36019 ft | 442 kts | 318° |
| 2026-05-07 08:18 | 18.10736 | -100.91215 | 36023 ft | 443 kts | 317° |
| 2026-05-07 08:19 | 18.15450 | -100.95306 | 36013 ft | 442 kts | 317° |
| 2026-05-07 08:19 | 18.20173 | -100.99407 | 36007 ft | 442 kts | 317° |
| 2026-05-07 08:20 | 18.24931 | -101.03542 | 36001 ft | 442 kts | 317° |
| 2026-05-07 08:20 | 18.29634 | -101.07632 | 35999 ft | 442 kts | 317° |
| 2026-05-07 08:21 | 18.34367 | -101.11752 | 35999 ft | 442 kts | 317° |
| 2026-05-07 08:21 | 18.39090 | -101.15865 | 35998 ft | 442 kts | 317° |
| 2026-05-07 08:22 | 18.43764 | -101.19939 | 35999 ft | 442 kts | 317° |
| 2026-05-07 08:22 | 18.48480 | -101.24052 | 35998 ft | 442 kts | 317° |
| 2026-05-07 08:23 | 18.53192 | -101.28166 | 35999 ft | 442 kts | 317° |
| 2026-05-07 08:23 | 18.57901 | -101.32279 | 36004 ft | 442 kts | 317° |
| 2026-05-07 08:24 | 18.62630 | -101.36414 | 36053 ft | 442 kts | 317° |
| 2026-05-07 08:24 | 18.67353 | -101.40545 | 36102 ft | 442 kts | 317° |
| 2026-05-07 08:25 | 18.72081 | -101.44683 | 36150 ft | 442 kts | 317° |
| 2026-05-07 08:25 | 18.76775 | -101.48795 | 36163 ft | 442 kts | 317° |
| 2026-05-07 08:26 | 18.83845 | -101.54993 | 36163 ft | 442 kts | 317° |
| 2026-05-07 08:26 | 18.88573 | -101.59144 | 36163 ft | 442 kts | 317° |
| 2026-05-07 08:27 | 18.93282 | -101.63281 | 36164 ft | 442 kts | 317° |
| 2026-05-07 08:27 | 18.97993 | -101.67420 | 36168 ft | 442 kts | 317° |
| 2026-05-07 08:28 | 19.02681 | -101.71544 | 36168 ft | 442 kts | 317° |
| 2026-05-07 08:28 | 19.07395 | -101.75693 | 36174 ft | 442 kts | 317° |
| 2026-05-07 08:29 | 19.12122 | -101.79858 | 36182 ft | 442 kts | 317° |
| 2026-05-07 08:29 | 19.16826 | -101.84006 | 36196 ft | 442 kts | 317° |
| 2026-05-07 08:30 | 19.21544 | -101.88169 | 36209 ft | 442 kts | 317° |
| 2026-05-07 08:30 | 19.26248 | -101.92323 | 36209 ft | 442 kts | 317° |
| 2026-05-07 08:31 | 19.30932 | -101.96462 | 36209 ft | 442 kts | 317° |
| 2026-05-07 08:31 | 19.35637 | -102.00623 | 36209 ft | 442 kts | 316° |
| 2026-05-07 08:32 | 19.40258 | -102.04884 | 36203 ft | 440 kts | 311° |
| 2026-05-07 08:32 | 19.44467 | -102.09566 | 36196 ft | 440 kts | 310° |
| 2026-05-07 08:33 | 19.48671 | -102.14253 | 36190 ft | 440 kts | 310° |
| 2026-05-07 08:33 | 19.52877 | -102.18950 | 36182 ft | 440 kts | 310° |
| 2026-05-07 08:34 | 19.57074 | -102.23640 | 36175 ft | 440 kts | 310° |
| 2026-05-07 08:34 | 19.61252 | -102.28313 | 36173 ft | 440 kts | 310° |
| 2026-05-07 08:35 | 19.65464 | -102.33028 | 36172 ft | 439 kts | 310° |
| 2026-05-07 08:35 | 19.69658 | -102.37726 | 36173 ft | 439 kts | 310° |
| 2026-05-07 08:36 | 19.73842 | -102.42418 | 36178 ft | 439 kts | 310° |
| 2026-05-07 08:36 | 19.78045 | -102.47134 | 36183 ft | 439 kts | 310° |
| 2026-05-07 08:37 | 19.82209 | -102.51811 | 36187 ft | 439 kts | 310° |
| 2026-05-07 08:37 | 19.86400 | -102.56521 | 36191 ft | 439 kts | 310° |
| 2026-05-07 08:38 | 19.90573 | -102.61215 | 36191 ft | 439 kts | 310° |
| 2026-05-07 08:38 | 19.94767 | -102.65937 | 36193 ft | 439 kts | 309° |
| 2026-05-07 08:39 | 19.98958 | -102.70659 | 36196 ft | 439 kts | 309° |
| 2026-05-07 08:39 | 20.03112 | -102.75342 | 36195 ft | 438 kts | 309° |
| 2026-05-07 08:40 | 20.07288 | -102.80057 | 36196 ft | 438 kts | 309° |
| 2026-05-07 08:40 | 20.11447 | -102.84755 | 36191 ft | 438 kts | 309° |
| 2026-05-07 08:41 | 20.15606 | -102.89457 | 36190 ft | 438 kts | 309° |
| 2026-05-07 08:41 | 20.19768 | -102.94166 | 36190 ft | 438 kts | 309° |
| 2026-05-07 08:42 | 20.23926 | -102.98875 | 36189 ft | 438 kts | 309° |
| 2026-05-07 08:42 | 20.28102 | -103.03608 | 36184 ft | 439 kts | 309° |
| 2026-05-07 08:43 | 20.32261 | -103.08325 | 36177 ft | 438 kts | 309° |
| 2026-05-07 08:43 | 20.36421 | -103.13049 | 36181 ft | 438 kts | 309° |
| 2026-05-07 08:44 | 20.40565 | -103.17757 | 36187 ft | 438 kts | 309° |
| 2026-05-07 08:44 | 20.44709 | -103.22469 | 36195 ft | 438 kts | 309° |
| 2026-05-07 08:45 | 20.48861 | -103.27193 | 36207 ft | 438 kts | 309° |
| 2026-05-07 08:45 | 20.53735 | -103.31171 | 36215 ft | 449 kts | 328° |
| 2026-05-07 08:46 | 20.59636 | -103.33499 | 36212 ft | 456 kts | 339° |
| 2026-05-07 08:46 | 20.65648 | -103.35480 | 36208 ft | 456 kts | 339° |
| 2026-05-07 08:47 | 20.71698 | -103.37456 | 36209 ft | 456 kts | 339° |
| 2026-05-07 08:47 | 20.77757 | -103.39431 | 36209 ft | 456 kts | 339° |
| 2026-05-07 08:48 | 20.83800 | -103.41401 | 36209 ft | 456 kts | 339° |
| 2026-05-07 08:48 | 20.89838 | -103.43368 | 36210 ft | 457 kts | 339° |
| 2026-05-07 08:49 | 20.95914 | -103.45349 | 36209 ft | 456 kts | 339° |
| 2026-05-07 08:49 | 21.01960 | -103.47322 | 36203 ft | 456 kts | 339° |
| 2026-05-07 08:50 | 21.07978 | -103.49288 | 36194 ft | 457 kts | 339° |
| 2026-05-07 08:50 | 21.14068 | -103.51278 | 36176 ft | 457 kts | 339° |
| 2026-05-07 08:51 | 21.20151 | -103.53268 | 36177 ft | 457 kts | 339° |
| 2026-05-07 08:51 | 21.26195 | -103.55248 | 36177 ft | 457 kts | 339° |
| 2026-05-07 08:52 | 21.32237 | -103.57227 | 36177 ft | 456 kts | 339° |
| 2026-05-07 08:52 | 21.38303 | -103.59226 | 36178 ft | 457 kts | 338° |
| 2026-05-07 08:53 | 21.44358 | -103.61224 | 36178 ft | 456 kts | 338° |
| 2026-05-07 08:53 | 21.50394 | -103.63214 | 36192 ft | 456 kts | 339° |
| 2026-05-07 08:54 | 21.56466 | -103.65213 | 36211 ft | 458 kts | 338° |
| 2026-05-07 08:54 | 21.62164 | -103.67993 | 36234 ft | 447 kts | 322° |
| 2026-05-07 08:55 | 21.66630 | -103.72369 | 36237 ft | 432 kts | 302° |
| 2026-05-07 08:55 | 21.69940 | -103.77721 | 36231 ft | 429 kts | 298° |
| 2026-05-07 08:56 | 21.73169 | -103.83092 | 36231 ft | 429 kts | 297° |
| 2026-05-07 08:56 | 21.76373 | -103.88438 | 36231 ft | 429 kts | 297° |
| 2026-05-07 08:57 | 21.79601 | -103.93833 | 36229 ft | 429 kts | 297° |
| 2026-05-07 08:57 | 21.82819 | -103.99216 | 36200 ft | 429 kts | 297° |
| 2026-05-07 08:58 | 21.86046 | -104.04622 | 36171 ft | 429 kts | 297° |
| 2026-05-07 08:58 | 21.89248 | -104.09990 | 36143 ft | 429 kts | 297° |
| 2026-05-07 08:59 | 21.92482 | -104.15417 | 36113 ft | 429 kts | 297° |
| 2026-05-07 08:59 | 21.95694 | -104.20812 | 36102 ft | 429 kts | 297° |
| 2026-05-07 09:00 | 21.98899 | -104.26202 | 36102 ft | 429 kts | 297° |
| 2026-05-07 09:00 | 22.02110 | -104.31606 | 36101 ft | 428 kts | 297° |
| 2026-05-07 09:01 | 22.05303 | -104.36987 | 36102 ft | 428 kts | 297° |
| 2026-05-07 09:01 | 22.08517 | -104.42408 | 36101 ft | 428 kts | 297° |
| 2026-05-07 09:02 | 22.11696 | -104.47774 | 36105 ft | 428 kts | 297° |
| 2026-05-07 09:02 | 22.14888 | -104.53168 | 36121 ft | 428 kts | 297° |
| 2026-05-07 09:03 | 22.18096 | -104.58595 | 36135 ft | 428 kts | 297° |
| 2026-05-07 09:03 | 22.21279 | -104.63985 | 36149 ft | 426 kts | 297° |
| 2026-05-07 09:04 | 22.24458 | -104.69373 | 36172 ft | 427 kts | 297° |
| 2026-05-07 09:04 | 22.27621 | -104.74741 | 36173 ft | 427 kts | 297° |
| 2026-05-07 09:05 | 22.30816 | -104.80167 | 36173 ft | 427 kts | 297° |
| 2026-05-07 09:05 | 22.33988 | -104.85562 | 36174 ft | 427 kts | 297° |
| 2026-05-07 09:06 | 22.37147 | -104.90939 | 36165 ft | 426 kts | 297° |
| 2026-05-07 09:06 | 22.40333 | -104.96365 | 36126 ft | 426 kts | 296° |
| 2026-05-07 09:07 | 22.43493 | -105.01756 | 36089 ft | 427 kts | 296° |
| 2026-05-07 09:07 | 22.46659 | -105.07162 | 36052 ft | 426 kts | 296° |
| 2026-05-07 09:08 | 22.49819 | -105.12566 | 36014 ft | 427 kts | 296° |
| 2026-05-07 09:08 | 22.52978 | -105.17972 | 36008 ft | 426 kts | 296° |
| 2026-05-07 09:09 | 22.56128 | -105.23367 | 36008 ft | 427 kts | 296° |
| 2026-05-07 09:09 | 22.59288 | -105.28786 | 36007 ft | 427 kts | 296° |
| 2026-05-07 09:10 | 22.62456 | -105.34225 | 36006 ft | 427 kts | 296° |
| 2026-05-07 09:10 | 22.65557 | -105.39541 | 35982 ft | 409 kts | 295° |
| 2026-05-07 09:11 | 22.68603 | -105.44795 | 36000 ft | 416 kts | 295° |
| 2026-05-07 09:11 | 22.71663 | -105.50063 | 35994 ft | 414 kts | 295° |
| 2026-05-07 09:12 | 22.74722 | -105.55335 | 35997 ft | 415 kts | 295° |
| 2026-05-07 09:12 | 22.77776 | -105.60606 | 35997 ft | 415 kts | 295° |
| 2026-05-07 09:13 | 22.80826 | -105.65875 | 36004 ft | 415 kts | 295° |
| 2026-05-07 09:13 | 22.83883 | -105.71158 | 36012 ft | 414 kts | 295° |
| 2026-05-07 09:14 | 22.86937 | -105.76441 | 36014 ft | 414 kts | 295° |
| 2026-05-07 09:14 | 22.89991 | -105.81733 | 36015 ft | 414 kts | 295° |
| 2026-05-07 09:15 | 22.93024 | -105.86992 | 36010 ft | 414 kts | 295° |
| 2026-05-07 09:15 | 22.96057 | -105.92255 | 35993 ft | 413 kts | 295° |
| 2026-05-07 09:16 | 22.99113 | -105.97566 | 35978 ft | 415 kts | 295° |
| 2026-05-07 09:16 | 23.02142 | -106.02831 | 35960 ft | 413 kts | 294° |
| 2026-05-07 09:17 | 23.05163 | -106.08092 | 35945 ft | 412 kts | 294° |
| 2026-05-07 09:17 | 23.08196 | -106.13380 | 35940 ft | 413 kts | 294° |
| 2026-05-07 09:18 | 23.11217 | -106.18649 | 35928 ft | 412 kts | 294° |
| 2026-05-07 09:18 | 23.14251 | -106.23940 | 35929 ft | 413 kts | 295° |
| 2026-05-07 09:19 | 23.18192 | -106.28591 | 35935 ft | 433 kts | 314° |
| 2026-05-07 09:19 | 23.23183 | -106.32365 | 35928 ft | 438 kts | 317° |
| 2026-05-07 09:20 | 23.28165 | -106.36073 | 35928 ft | 437 kts | 317° |
| 2026-05-07 09:20 | 23.33164 | -106.39788 | 35929 ft | 437 kts | 317° |
| 2026-05-07 09:21 | 23.38170 | -106.43509 | 35928 ft | 438 kts | 317° |
| 2026-05-07 09:21 | 23.43208 | -106.47257 | 35938 ft | 439 kts | 317° |
| 2026-05-07 09:22 | 23.48230 | -106.50996 | 35947 ft | 438 kts | 317° |
| 2026-05-07 09:22 | 23.53260 | -106.54746 | 35955 ft | 439 kts | 317° |
| 2026-05-07 09:23 | 23.58253 | -106.58472 | 35956 ft | 439 kts | 317° |
| 2026-05-07 09:23 | 23.63271 | -106.62220 | 35956 ft | 438 kts | 317° |
| 2026-05-07 09:24 | 23.68281 | -106.65968 | 35966 ft | 438 kts | 316° |
| 2026-05-07 09:24 | 23.73290 | -106.69717 | 35970 ft | 438 kts | 316° |
| 2026-05-07 09:25 | 23.78324 | -106.73489 | 35970 ft | 438 kts | 316° |
| 2026-05-07 09:25 | 23.83326 | -106.77240 | 35969 ft | 438 kts | 316° |
| 2026-05-07 09:26 | 23.88341 | -106.81005 | 35970 ft | 438 kts | 316° |
| 2026-05-07 09:26 | 23.93320 | -106.84747 | 35971 ft | 438 kts | 316° |
| 2026-05-07 09:27 | 23.98341 | -106.88522 | 35974 ft | 438 kts | 316° |
| 2026-05-07 09:28 | 24.05847 | -106.94170 | 35981 ft | 439 kts | 316° |
| 2026-05-07 09:28 | 24.10841 | -106.97932 | 35978 ft | 438 kts | 315° |
| 2026-05-07 09:29 | 24.15829 | -107.01695 | 35975 ft | 438 kts | 315° |
| 2026-05-07 09:29 | 24.20842 | -107.05479 | 35977 ft | 438 kts | 315° |
| 2026-05-07 09:30 | 24.25847 | -107.09260 | 35977 ft | 438 kts | 315° |
| 2026-05-07 09:30 | 24.30847 | -107.13042 | 35977 ft | 438 kts | 315° |
| 2026-05-07 09:31 | 24.35818 | -107.16806 | 35977 ft | 438 kts | 315° |
| 2026-05-07 09:31 | 24.40835 | -107.20608 | 35977 ft | 438 kts | 315° |
| 2026-05-07 09:32 | 24.45804 | -107.24380 | 35977 ft | 438 kts | 315° |
| 2026-05-07 09:32 | 24.50805 | -107.28182 | 35977 ft | 438 kts | 315° |
| 2026-05-07 09:33 | 24.55809 | -107.31990 | 35977 ft | 438 kts | 315° |
| 2026-05-07 09:33 | 24.60803 | -107.35792 | 35977 ft | 437 kts | 315° |
| 2026-05-07 09:34 | 24.65772 | -107.39582 | 35977 ft | 437 kts | 315° |
| 2026-05-07 09:34 | 24.70771 | -107.43397 | 35976 ft | 438 kts | 315° |
| 2026-05-07 09:35 | 24.75766 | -107.47213 | 35977 ft | 439 kts | 315° |
| 2026-05-07 09:35 | 24.80528 | -107.51276 | 35978 ft | 433 kts | 311° |
| 2026-05-07 09:36 | 24.85226 | -107.55389 | 35978 ft | 434 kts | 311° |
| 2026-05-07 09:36 | 24.89933 | -107.59504 | 35977 ft | 433 kts | 311° |
| 2026-05-07 09:37 | 24.94651 | -107.63631 | 35977 ft | 433 kts | 311° |
| 2026-05-07 09:37 | 24.99345 | -107.67740 | 35994 ft | 434 kts | 311° |
| 2026-05-07 09:38 | 25.04080 | -107.71888 | 35992 ft | 434 kts | 311° |
| 2026-05-07 09:38 | 25.08786 | -107.76017 | 35994 ft | 435 kts | 311° |
| 2026-05-07 09:39 | 25.13534 | -107.80180 | 35978 ft | 435 kts | 311° |
| 2026-05-07 09:39 | 25.18241 | -107.84312 | 35984 ft | 437 kts | 310° |
| 2026-05-07 09:40 | 25.23004 | -107.88496 | 35984 ft | 436 kts | 310° |
| 2026-05-07 09:40 | 25.27719 | -107.92642 | 35988 ft | 436 kts | 310° |
| 2026-05-07 09:41 | 25.32476 | -107.96832 | 35988 ft | 436 kts | 310° |
| 2026-05-07 09:41 | 25.37212 | -108.01009 | 35990 ft | 438 kts | 310° |
| 2026-05-07 09:42 | 25.41928 | -108.05171 | 35988 ft | 437 kts | 310° |
| 2026-05-07 09:42 | 25.46675 | -108.09366 | 35989 ft | 437 kts | 310° |
| 2026-05-07 09:43 | 25.51405 | -108.13550 | 35988 ft | 437 kts | 310° |
| 2026-05-07 09:43 | 25.56132 | -108.17737 | 35989 ft | 437 kts | 310° |
| 2026-05-07 09:44 | 25.60877 | -108.21945 | 35989 ft | 437 kts | 310° |
| 2026-05-07 09:44 | 25.65624 | -108.26160 | 35989 ft | 437 kts | 310° |
| 2026-05-07 09:45 | 25.70335 | -108.30347 | 35989 ft | 437 kts | 310° |
| 2026-05-07 09:45 | 25.75069 | -108.34559 | 35989 ft | 437 kts | 310° |
| 2026-05-07 09:46 | 25.79778 | -108.38752 | 35987 ft | 437 kts | 310° |
| 2026-05-07 09:46 | 25.84493 | -108.42956 | 35985 ft | 437 kts | 310° |
| 2026-05-07 09:47 | 25.89218 | -108.47174 | 35982 ft | 437 kts | 310° |
| 2026-05-07 09:47 | 25.93944 | -108.51396 | 35980 ft | 437 kts | 310° |
| 2026-05-07 09:48 | 25.98685 | -108.55637 | 35980 ft | 437 kts | 310° |
| 2026-05-07 09:48 | 26.03393 | -108.59851 | 35980 ft | 436 kts | 310° |
| 2026-05-07 09:49 | 26.08113 | -108.64083 | 35980 ft | 436 kts | 310° |
| 2026-05-07 09:49 | 26.12802 | -108.68290 | 35978 ft | 435 kts | 309° |
| 2026-05-07 09:50 | 26.17493 | -108.72504 | 35981 ft | 436 kts | 309° |
| 2026-05-07 09:50 | 26.22195 | -108.76732 | 35981 ft | 436 kts | 309° |
| 2026-05-07 09:51 | 26.26896 | -108.80965 | 35982 ft | 436 kts | 309° |
| 2026-05-07 09:51 | 26.31615 | -108.85218 | 35984 ft | 435 kts | 309° |
| 2026-05-07 09:52 | 26.36299 | -108.89444 | 35987 ft | 435 kts | 309° |
| 2026-05-07 09:52 | 26.41006 | -108.93695 | 35990 ft | 435 kts | 309° |
| 2026-05-07 09:53 | 26.45680 | -108.97920 | 35990 ft | 435 kts | 309° |
| 2026-05-07 09:53 | 26.50372 | -109.02168 | 35990 ft | 435 kts | 309° |
| 2026-05-07 09:54 | 26.55056 | -109.06412 | 35990 ft | 435 kts | 309° |
| 2026-05-07 09:54 | 26.59732 | -109.10653 | 35990 ft | 435 kts | 309° |
| 2026-05-07 09:55 | 26.64448 | -109.14936 | 35990 ft | 435 kts | 309° |
| 2026-05-07 09:55 | 26.69120 | -109.19183 | 35990 ft | 435 kts | 309° |
| 2026-05-07 09:56 | 26.73802 | -109.23444 | 35990 ft | 435 kts | 309° |
| 2026-05-07 09:56 | 26.78482 | -109.27708 | 35990 ft | 435 kts | 309° |
| 2026-05-07 09:57 | 26.83135 | -109.31952 | 35990 ft | 435 kts | 309° |
| 2026-05-07 09:57 | 26.87829 | -109.36238 | 35991 ft | 435 kts | 309° |
| 2026-05-07 09:58 | 26.92474 | -109.40484 | 35989 ft | 435 kts | 309° |
| 2026-05-07 09:58 | 26.97166 | -109.44778 | 35986 ft | 435 kts | 309° |
| 2026-05-07 09:59 | 27.01839 | -109.49058 | 35983 ft | 434 kts | 309° |
| 2026-05-07 09:59 | 27.06496 | -109.53332 | 35981 ft | 435 kts | 309° |
| 2026-05-07 10:00 | 27.11170 | -109.57625 | 35970 ft | 435 kts | 309° |
| 2026-05-07 10:00 | 27.15813 | -109.61894 | 35966 ft | 434 kts | 309° |
| 2026-05-07 10:01 | 27.20473 | -109.66183 | 35980 ft | 434 kts | 308° |
| 2026-05-07 10:01 | 27.25122 | -109.70467 | 35981 ft | 431 kts | 308° |
| 2026-05-07 10:02 | 27.29740 | -109.74731 | 35985 ft | 434 kts | 308° |
| 2026-05-07 10:02 | 27.34384 | -109.79019 | 35981 ft | 433 kts | 308° |
| 2026-05-07 10:03 | 27.39043 | -109.83289 | 35980 ft | 437 kts | 311° |
| 2026-05-07 10:03 | 27.44227 | -109.87045 | 35982 ft | 445 kts | 316° |
| 2026-05-07 10:04 | 27.49488 | -109.90748 | 35982 ft | 445 kts | 316° |
| 2026-05-07 10:04 | 27.54705 | -109.94416 | 35983 ft | 445 kts | 316° |
| 2026-05-07 10:05 | 27.59956 | -109.98109 | 35982 ft | 445 kts | 316° |
| 2026-05-07 10:05 | 27.65207 | -110.01807 | 35979 ft | 445 kts | 315° |
| 2026-05-07 10:06 | 27.70442 | -110.05500 | 35975 ft | 448 kts | 315° |
| 2026-05-07 10:06 | 27.75685 | -110.09199 | 35971 ft | 447 kts | 315° |
| 2026-05-07 10:07 | 27.80969 | -110.12933 | 35969 ft | 447 kts | 315° |
| 2026-05-07 10:07 | 27.86227 | -110.16656 | 35966 ft | 447 kts | 315° |
| 2026-05-07 10:08 | 27.91474 | -110.20376 | 35966 ft | 447 kts | 315° |
| 2026-05-07 10:08 | 27.96725 | -110.24103 | 35967 ft | 447 kts | 315° |
| 2026-05-07 10:09 | 28.01986 | -110.27840 | 35967 ft | 447 kts | 315° |
| 2026-05-07 10:09 | 28.07195 | -110.31543 | 35967 ft | 447 kts | 316° |
| 2026-05-07 10:10 | 28.12444 | -110.35278 | 35949 ft | 447 kts | 316° |
| 2026-05-07 10:10 | 28.17694 | -110.39020 | 35952 ft | 447 kts | 316° |
| 2026-05-07 10:11 | 28.22925 | -110.42751 | 35961 ft | 447 kts | 316° |
| 2026-05-07 10:11 | 28.28201 | -110.46520 | 35968 ft | 447 kts | 316° |
| 2026-05-07 10:12 | 28.33435 | -110.50262 | 35977 ft | 446 kts | 316° |
| 2026-05-07 10:12 | 28.38687 | -110.54022 | 35980 ft | 447 kts | 316° |
| 2026-05-07 10:13 | 28.43907 | -110.57765 | 35980 ft | 447 kts | 316° |
| 2026-05-07 10:13 | 28.49144 | -110.61523 | 35980 ft | 447 kts | 316° |
| 2026-05-07 10:14 | 28.54393 | -110.65295 | 35973 ft | 447 kts | 316° |
| 2026-05-07 10:14 | 28.59627 | -110.69059 | 35987 ft | 446 kts | 316° |
| 2026-05-07 10:15 | 28.64832 | -110.72809 | 35988 ft | 446 kts | 316° |
| 2026-05-07 10:15 | 28.70049 | -110.76572 | 35998 ft | 448 kts | 316° |
| 2026-05-07 10:16 | 28.75313 | -110.80371 | 36005 ft | 447 kts | 316° |
| 2026-05-07 10:16 | 28.80536 | -110.84147 | 36014 ft | 447 kts | 316° |
| 2026-05-07 10:17 | 28.85792 | -110.87950 | 36016 ft | 447 kts | 316° |
| 2026-05-07 10:17 | 28.91012 | -110.91734 | 36015 ft | 447 kts | 316° |
| 2026-05-07 10:18 | 28.96253 | -110.95536 | 36014 ft | 447 kts | 316° |
| 2026-05-07 10:18 | 29.01511 | -110.99355 | 36013 ft | 447 kts | 316° |
| 2026-05-07 10:19 | 29.06724 | -111.03146 | 36012 ft | 447 kts | 316° |
| 2026-05-07 10:19 | 29.11902 | -111.07057 | 35995 ft | 438 kts | 309° |
| 2026-05-07 10:20 | 29.16394 | -111.11659 | 35993 ft | 436 kts | 308° |
| 2026-05-07 10:20 | 29.20991 | -111.16164 | 35993 ft | 437 kts | 309° |
| 2026-05-07 10:21 | 29.25080 | -111.20119 | 35993 ft | 438 kts | 309° |
| 2026-05-07 10:21 | 29.29722 | -111.24597 | 35993 ft | 438 kts | 309° |
| 2026-05-07 10:22 | 29.34392 | -111.29105 | 35996 ft | 438 kts | 309° |
| 2026-05-07 10:22 | 29.39028 | -111.33582 | 35999 ft | 438 kts | 309° |
| 2026-05-07 10:23 | 29.43674 | -111.38077 | 36002 ft | 438 kts | 310° |
| 2026-05-07 10:23 | 29.48328 | -111.42590 | 36003 ft | 438 kts | 310° |
| 2026-05-07 10:24 | 29.52960 | -111.47086 | 36003 ft | 438 kts | 310° |
| 2026-05-07 10:24 | 29.57593 | -111.51590 | 36003 ft | 439 kts | 310° |
| 2026-05-07 10:25 | 29.62236 | -111.56107 | 36003 ft | 439 kts | 310° |
| 2026-05-07 10:25 | 29.66876 | -111.60628 | 36003 ft | 439 kts | 310° |
| 2026-05-07 10:26 | 29.71533 | -111.65173 | 36004 ft | 441 kts | 310° |
| 2026-05-07 10:26 | 29.76180 | -111.69710 | 36015 ft | 439 kts | 310° |
| 2026-05-07 10:27 | 29.80857 | -111.74286 | 36016 ft | 440 kts | 310° |
| 2026-05-07 10:27 | 29.85485 | -111.78818 | 36016 ft | 440 kts | 310° |
| 2026-05-07 10:28 | 29.90128 | -111.83369 | 36016 ft | 440 kts | 310° |
| 2026-05-07 10:28 | 29.94774 | -111.87929 | 36019 ft | 440 kts | 310° |
| 2026-05-07 10:29 | 29.99426 | -111.92500 | 36026 ft | 440 kts | 310° |
| 2026-05-07 10:29 | 30.04073 | -111.97072 | 36025 ft | 440 kts | 310° |
| 2026-05-07 10:30 | 30.11021 | -112.03919 | 36004 ft | 440 kts | 311° |
| 2026-05-07 10:30 | 30.15670 | -112.08508 | 35988 ft | 440 kts | 311° |
| 2026-05-07 10:31 | 30.20323 | -112.13108 | 35985 ft | 440 kts | 311° |
| 2026-05-07 10:31 | 30.24933 | -112.17670 | 35986 ft | 440 kts | 311° |
| 2026-05-07 10:32 | 30.29594 | -112.22289 | 35985 ft | 441 kts | 311° |
| 2026-05-07 10:32 | 30.34217 | -112.26875 | 35986 ft | 442 kts | 311° |
| 2026-05-07 10:33 | 30.38869 | -112.31497 | 35986 ft | 441 kts | 312° |
| 2026-05-07 10:33 | 30.43503 | -112.36107 | 35987 ft | 441 kts | 312° |
| 2026-05-07 10:34 | 30.48147 | -112.40733 | 35987 ft | 441 kts | 313° |
| 2026-05-07 10:34 | 30.52792 | -112.45366 | 35987 ft | 441 kts | 313° |
| 2026-05-07 10:35 | 30.57417 | -112.49985 | 35987 ft | 441 kts | 313° |
| 2026-05-07 10:35 | 30.62053 | -112.54620 | 35984 ft | 440 kts | 314° |
| 2026-05-07 10:36 | 30.66669 | -112.59243 | 35983 ft | 441 kts | 314° |
| 2026-05-07 10:36 | 30.71311 | -112.63897 | 35980 ft | 441 kts | 315° |
| 2026-05-07 10:37 | 30.75946 | -112.68549 | 35984 ft | 440 kts | 314° |
| 2026-05-07 10:37 | 30.80550 | -112.73177 | 35985 ft | 441 kts | 315° |
| 2026-05-07 10:38 | 30.85166 | -112.77823 | 35983 ft | 440 kts | 315° |
| 2026-05-07 10:38 | 30.89794 | -112.82488 | 35984 ft | 440 kts | 315° |
| 2026-05-07 10:39 | 30.94377 | -112.87114 | 35980 ft | 440 kts | 316° |
| 2026-05-07 10:39 | 30.99036 | -112.91821 | 35975 ft | 440 kts | 316° |
| 2026-05-07 10:40 | 31.03638 | -112.96478 | 35971 ft | 440 kts | 316° |
| 2026-05-07 10:40 | 31.08251 | -113.01152 | 35969 ft | 440 kts | 317° |
| 2026-05-07 10:41 | 31.12858 | -113.05827 | 35961 ft | 440 kts | 317° |
| 2026-05-07 10:41 | 31.17441 | -113.10484 | 35962 ft | 440 kts | 317° |
| 2026-05-07 10:42 | 31.22070 | -113.15192 | 35962 ft | 439 kts | 317° |
| 2026-05-07 10:42 | 31.26669 | -113.19878 | 35962 ft | 439 kts | 318° |
| 2026-05-07 10:43 | 31.31253 | -113.24554 | 35962 ft | 439 kts | 318° |
| 2026-05-07 10:43 | 31.35779 | -113.29308 | 35958 ft | 439 kts | 313° |
| 2026-05-07 10:44 | 31.39409 | -113.35030 | 35964 ft | 439 kts | 304° |
| 2026-05-07 10:44 | 31.42780 | -113.40937 | 35962 ft | 439 kts | 304° |
| 2026-05-07 10:45 | 31.46149 | -113.46915 | 35963 ft | 441 kts | 304° |
| 2026-05-07 10:45 | 31.49500 | -113.52888 | 35963 ft | 441 kts | 305° |
| 2026-05-07 10:46 | 31.52872 | -113.58913 | 35964 ft | 442 kts | 305° |
| 2026-05-07 10:46 | 31.56224 | -113.64911 | 35965 ft | 442 kts | 306° |
| 2026-05-07 10:47 | 31.59588 | -113.70940 | 35961 ft | 443 kts | 306° |
| 2026-05-07 10:47 | 31.62956 | -113.76987 | 35962 ft | 443 kts | 306° |
| 2026-05-07 10:48 | 31.66312 | -113.83019 | 35962 ft | 444 kts | 306° |
| 2026-05-07 10:48 | 31.69689 | -113.89101 | 35961 ft | 444 kts | 306° |
| 2026-05-07 10:49 | 31.73050 | -113.95164 | 35963 ft | 445 kts | 307° |
| 2026-05-07 10:49 | 31.76429 | -114.01268 | 35966 ft | 445 kts | 307° |
| 2026-05-07 10:50 | 31.79769 | -114.07310 | 35970 ft | 444 kts | 307° |
| 2026-05-07 10:50 | 31.83137 | -114.13414 | 35974 ft | 445 kts | 307° |
| 2026-05-07 10:51 | 31.86484 | -114.19489 | 35977 ft | 444 kts | 307° |
| 2026-05-07 10:51 | 31.89830 | -114.25571 | 35980 ft | 444 kts | 307° |
| 2026-05-07 10:52 | 31.93193 | -114.31697 | 35979 ft | 444 kts | 307° |
| 2026-05-07 10:52 | 31.96517 | -114.37758 | 35979 ft | 443 kts | 307° |
| 2026-05-07 10:53 | 31.99865 | -114.43875 | 35981 ft | 443 kts | 307° |
| 2026-05-07 10:53 | 32.03196 | -114.49971 | 35981 ft | 444 kts | 307° |
| 2026-05-07 10:54 | 32.06521 | -114.56065 | 35979 ft | 443 kts | 307° |
| 2026-05-07 10:54 | 32.09850 | -114.62176 | 35979 ft | 442 kts | 307° |
| 2026-05-07 10:55 | 32.13163 | -114.68265 | 35981 ft | 443 kts | 307° |
| 2026-05-07 10:55 | 32.16470 | -114.74357 | 35983 ft | 441 kts | 307° |
| 2026-05-07 10:56 | 32.19762 | -114.80428 | 35983 ft | 441 kts | 307° |
| 2026-05-07 10:56 | 32.23054 | -114.86511 | 35982 ft | 439 kts | 307° |
| 2026-05-07 10:57 | 32.26350 | -114.92609 | 35983 ft | 439 kts | 308° |
| 2026-05-07 10:57 | 32.29629 | -114.98686 | 35984 ft | 438 kts | 308° |
| 2026-05-07 10:58 | 32.32893 | -115.04745 | 35986 ft | 438 kts | 308° |
| 2026-05-07 10:58 | 32.36134 | -115.10770 | 35985 ft | 437 kts | 308° |
| 2026-05-07 10:59 | 32.39407 | -115.16859 | 35985 ft | 437 kts | 308° |
| 2026-05-07 10:59 | 32.42645 | -115.22895 | 35981 ft | 437 kts | 308° |
| 2026-05-07 11:00 | 32.45891 | -115.28956 | 35978 ft | 436 kts | 308° |
| 2026-05-07 11:00 | 32.49128 | -115.35011 | 35973 ft | 435 kts | 308° |
| 2026-05-07 11:01 | 32.52368 | -115.41078 | 35974 ft | 436 kts | 308° |
| 2026-05-07 11:01 | 32.55586 | -115.47115 | 35974 ft | 435 kts | 308° |
| 2026-05-07 11:02 | 32.58810 | -115.53175 | 35974 ft | 435 kts | 308° |
| 2026-05-07 11:02 | 32.62034 | -115.59243 | 35973 ft | 435 kts | 308° |
| 2026-05-07 11:03 | 32.65243 | -115.65294 | 35974 ft | 434 kts | 308° |
| 2026-05-07 11:03 | 32.68452 | -115.71362 | 35969 ft | 435 kts | 308° |
| 2026-05-07 11:04 | 32.71662 | -115.77449 | 35961 ft | 427 kts | 308° |
| 2026-05-07 11:04 | 32.74746 | -115.83303 | 35968 ft | 417 kts | 308° |
| 2026-05-07 11:05 | 32.77848 | -115.89191 | 35521 ft | 425 kts | 308° |
| 2026-05-07 11:05 | 32.79395 | -115.92140 | 35085 ft | 422 kts | 308° |
| 2026-05-07 11:05 | 32.80935 | -115.95104 | 34675 ft | 424 kts | 307° |
| 2026-05-07 11:06 | 32.82459 | -115.98142 | 34206 ft | 426 kts | 307° |
| 2026-05-07 11:06 | 32.83955 | -116.01128 | 33740 ft | 427 kts | 307° |
| 2026-05-07 11:06 | 32.85471 | -116.04153 | 33267 ft | 424 kts | 307° |
| 2026-05-07 11:06 | 32.87000 | -116.07203 | 32799 ft | 428 kts | 307° |
| 2026-05-07 11:07 | 32.88500 | -116.10201 | 32340 ft | 428 kts | 307° |
| 2026-05-07 11:07 | 32.90039 | -116.13279 | 31873 ft | 429 kts | 307° |
| 2026-05-07 11:07 | 32.91559 | -116.16322 | 31414 ft | 430 kts | 306° |
| 2026-05-07 11:07 | 32.93074 | -116.19357 | 30955 ft | 432 kts | 306° |
| 2026-05-07 11:08 | 32.94604 | -116.22425 | 30488 ft | 430 kts | 306° |
| 2026-05-07 11:08 | 32.96127 | -116.25482 | 30017 ft | 427 kts | 306° |
| 2026-05-07 11:08 | 32.97619 | -116.28481 | 29557 ft | 423 kts | 306° |
| 2026-05-07 11:08 | 32.99124 | -116.31506 | 29088 ft | 419 kts | 306° |
| 2026-05-07 11:09 | 33.00585 | -116.34445 | 28633 ft | 417 kts | 306° |
| 2026-05-07 11:09 | 33.02070 | -116.37433 | 28166 ft | 415 kts | 306° |
| 2026-05-07 11:09 | 33.03526 | -116.40368 | 27706 ft | 412 kts | 306° |
| 2026-05-07 11:09 | 33.04903 | -116.43354 | 27245 ft | 411 kts | 300° |
| 2026-05-07 11:10 | 33.06078 | -116.46440 | 26794 ft | 409 kts | 299° |
| 2026-05-07 11:10 | 33.07236 | -116.49502 | 26341 ft | 407 kts | 299° |
| 2026-05-07 11:10 | 33.08387 | -116.52565 | 25889 ft | 404 kts | 299° |
| 2026-05-07 11:10 | 33.09530 | -116.55614 | 25441 ft | 401 kts | 299° |
| 2026-05-07 11:11 | 33.10666 | -116.58651 | 25002 ft | 398 kts | 299° |
| 2026-05-07 11:11 | 33.11778 | -116.61627 | 24566 ft | 395 kts | 299° |
| 2026-05-07 11:11 | 33.12882 | -116.64632 | 24120 ft | 394 kts | 296° |
| 2026-05-07 11:11 | 33.13591 | -116.67786 | 23675 ft | 398 kts | 284° |
| 2026-05-07 11:12 | 33.14076 | -116.70998 | 23191 ft | 397 kts | 284° |
| 2026-05-07 11:12 | 33.14562 | -116.74246 | 22697 ft | 395 kts | 284° |
| 2026-05-07 11:12 | 33.15038 | -116.77465 | 22207 ft | 393 kts | 284° |
| 2026-05-07 11:12 | 33.15512 | -116.80683 | 21725 ft | 391 kts | 284° |
| 2026-05-07 11:13 | 33.15977 | -116.83858 | 21257 ft | 388 kts | 283° |
| 2026-05-07 11:13 | 33.16439 | -116.87019 | 20788 ft | 386 kts | 283° |
| 2026-05-07 11:13 | 33.16898 | -116.90168 | 20322 ft | 384 kts | 283° |
| 2026-05-07 11:13 | 33.17353 | -116.93291 | 19857 ft | 382 kts | 283° |
| 2026-05-07 11:14 | 33.17805 | -116.96405 | 19392 ft | 380 kts | 283° |
| 2026-05-07 11:14 | 33.18254 | -116.99500 | 18928 ft | 378 kts | 283° |
| 2026-05-07 11:14 | 33.18700 | -117.02581 | 18464 ft | 376 kts | 283° |
| 2026-05-07 11:14 | 33.19143 | -117.05644 | 17999 ft | 374 kts | 283° |
| 2026-05-07 11:15 | 33.19580 | -117.08672 | 17536 ft | 372 kts | 283° |
| 2026-05-07 11:15 | 33.20020 | -117.11726 | 17066 ft | 371 kts | 283° |
| 2026-05-07 11:15 | 33.20456 | -117.14763 | 16592 ft | 369 kts | 283° |
| 2026-05-07 11:15 | 33.20887 | -117.17767 | 16108 ft | 369 kts | 283° |
| 2026-05-07 11:16 | 33.21260 | -117.20367 | 15676 ft | 368 kts | 283° |
| 2026-05-07 11:16 | 33.21697 | -117.23419 | 15142 ft | 369 kts | 283° |
| 2026-05-07 11:16 | 33.22124 | -117.26421 | 14928 ft | 359 kts | 283° |
| 2026-05-07 11:16 | 33.22545 | -117.29372 | 14345 ft | 363 kts | 282° |
| 2026-05-07 11:17 | 33.22976 | -117.32371 | 14080 ft | 355 kts | 283° |
| 2026-05-07 11:17 | 33.23418 | -117.35200 | 14088 ft | 347 kts | 283° |
| 2026-05-07 11:17 | 33.23859 | -117.38021 | 14093 ft | 347 kts | 283° |
| 2026-05-07 11:17 | 33.24300 | -117.40845 | 14092 ft | 346 kts | 283° |
| 2026-05-07 11:18 | 33.24719 | -117.43529 | 14094 ft | 346 kts | 283° |
| 2026-05-07 11:18 | 33.25158 | -117.46355 | 14094 ft | 347 kts | 283° |
| 2026-05-07 11:18 | 33.25602 | -117.49214 | 14093 ft | 347 kts | 283° |
| 2026-05-07 11:18 | 33.26071 | -117.52007 | 14088 ft | 345 kts | 289° |
| 2026-05-07 11:19 | 33.27027 | -117.54638 | 14032 ft | 342 kts | 304° |
| 2026-05-07 11:19 | 33.28287 | -117.57042 | 13649 ft | 342 kts | 306° |
| 2026-05-07 11:19 | 33.29567 | -117.59437 | 13256 ft | 340 kts | 306° |
| 2026-05-07 11:19 | 33.30849 | -117.61825 | 12872 ft | 338 kts | 306° |
| 2026-05-07 11:20 | 33.32116 | -117.64182 | 12501 ft | 336 kts | 306° |
| 2026-05-07 11:20 | 33.33190 | -117.66180 | 12191 ft | 334 kts | 306° |
| 2026-05-07 11:20 | 33.34448 | -117.68520 | 11837 ft | 332 kts | 306° |
| 2026-05-07 11:20 | 33.35687 | -117.70827 | 11496 ft | 329 kts | 305° |
| 2026-05-07 11:21 | 33.36926 | -117.73132 | 11151 ft | 326 kts | 305° |
| 2026-05-07 11:21 | 33.38133 | -117.75382 | 10812 ft | 324 kts | 305° |
| 2026-05-07 11:21 | 33.39356 | -117.77661 | 10461 ft | 321 kts | 304° |
| 2026-05-07 11:21 | 33.40538 | -117.79868 | 10371 ft | 310 kts | 304° |
| 2026-05-07 11:22 | 33.41676 | -117.81997 | 10353 ft | 297 kts | 304° |
| 2026-05-07 11:22 | 33.42768 | -117.84038 | 10324 ft | 285 kts | 304° |
| 2026-05-07 11:22 | 33.43847 | -117.86051 | 10070 ft | 283 kts | 304° |
| 2026-05-07 11:22 | 33.44903 | -117.88026 | 9846 ft | 279 kts | 304° |
| 2026-05-07 11:23 | 33.45944 | -117.89973 | 9651 ft | 275 kts | 304° |
| 2026-05-07 11:23 | 33.46974 | -117.91876 | 9430 ft | 273 kts | 308° |
| 2026-05-07 11:23 | 33.48374 | -117.93378 | 9044 ft | 272 kts | 333° |
| 2026-05-07 11:23 | 33.50095 | -117.94230 | 8963 ft | 265 kts | 339° |
| 2026-05-07 11:24 | 33.51824 | -117.95013 | 8856 ft | 264 kts | 339° |
| 2026-05-07 11:24 | 33.53543 | -117.95782 | 8741 ft | 263 kts | 339° |
| 2026-05-07 11:24 | 33.55257 | -117.96537 | 8620 ft | 263 kts | 340° |
| 2026-05-07 11:24 | 33.56960 | -117.97283 | 8494 ft | 263 kts | 340° |
| 2026-05-07 11:25 | 33.58677 | -117.98033 | 8362 ft | 262 kts | 340° |
| 2026-05-07 11:25 | 33.60388 | -117.98779 | 8227 ft | 262 kts | 340° |
| 2026-05-07 11:25 | 33.62096 | -117.99522 | 8095 ft | 261 kts | 340° |
| 2026-05-07 11:25 | 33.63832 | -118.00183 | 7906 ft | 261 kts | 343° |
| 2026-05-07 11:26 | 33.65585 | -118.00817 | 7668 ft | 260 kts | 342° |
| 2026-05-07 11:26 | 33.67322 | -118.01452 | 7446 ft | 260 kts | 342° |
| 2026-05-07 11:26 | 33.69039 | -118.02078 | 7230 ft | 259 kts | 342° |
| 2026-05-07 11:26 | 33.70766 | -118.02709 | 7079 ft | 257 kts | 342° |
| 2026-05-07 11:27 | 33.72454 | -118.03326 | 7080 ft | 252 kts | 342° |
| 2026-05-07 11:27 | 33.74104 | -118.03929 | 7070 ft | 242 kts | 342° |
| 2026-05-07 11:27 | 33.75689 | -118.04508 | 7071 ft | 232 kts | 342° |
| 2026-05-07 11:27 | 33.77208 | -118.05064 | 7074 ft | 226 kts | 342° |
| 2026-05-07 11:28 | 33.78693 | -118.05642 | 7075 ft | 226 kts | 339° |
| 2026-05-07 11:28 | 33.80166 | -118.06346 | 6811 ft | 233 kts | 337° |
| 2026-05-07 11:28 | 33.81679 | -118.07078 | 6495 ft | 239 kts | 338° |
| 2026-05-07 11:28 | 33.83254 | -118.07835 | 6059 ft | 248 kts | 338° |
| 2026-05-07 11:29 | 33.84892 | -118.08622 | 5591 ft | 257 kts | 338° |
| 2026-05-07 11:29 | 33.86542 | -118.09414 | 5415 ft | 253 kts | 338° |
| 2026-05-07 11:29 | 33.88144 | -118.10184 | 5244 ft | 250 kts | 338° |
| 2026-05-07 11:29 | 33.89787 | -118.10836 | 5084 ft | 246 kts | 352° |
| 2026-05-07 11:30 | 33.91436 | -118.10617 | 5084 ft | 237 kts | 21° |
| 2026-05-07 11:30 | 33.92755 | -118.09521 | 5084 ft | 230 kts | 49° |
| 2026-05-07 11:30 | 33.93492 | -118.07835 | 5089 ft | 228 kts | 76° |
| 2026-05-07 11:30 | 33.93510 | -118.05930 | 5095 ft | 230 kts | 103° |
| 2026-05-07 11:31 | 33.92798 | -118.04206 | 5094 ft | 231 kts | 131° |
| 2026-05-07 11:31 | 33.91614 | -118.03117 | 5097 ft | 231 kts | 155° |
| 2026-05-07 11:31 | 33.90279 | -118.02440 | 5089 ft | 231 kts | 158° |
| 2026-05-07 11:31 | 33.88868 | -118.01739 | 5080 ft | 230 kts | 158° |
| 2026-05-07 11:32 | 33.85885 | -118.00294 | 5079 ft | 230 kts | 165° |
| 2026-05-07 11:32 | 33.84324 | -118.00188 | 5092 ft | 229 kts | 192° |
| 2026-05-07 11:32 | 33.82875 | -118.00947 | 5095 ft | 227 kts | 219° |
| 2026-05-07 11:33 | 33.81882 | -118.02385 | 5094 ft | 225 kts | 246° |
| 2026-05-07 11:33 | 33.81529 | -118.04195 | 5094 ft | 223 kts | 272° |
| 2026-05-07 11:33 | 33.81872 | -118.05984 | 5093 ft | 221 kts | 298° |
| 2026-05-07 11:33 | 33.82826 | -118.07402 | 5093 ft | 221 kts | 323° |
| 2026-05-07 11:34 | 33.84180 | -118.08250 | 5095 ft | 221 kts | 338° |
| 2026-05-07 11:34 | 33.85605 | -118.08927 | 5081 ft | 221 kts | 338° |
| 2026-05-07 11:34 | 33.87041 | -118.09632 | 5082 ft | 221 kts | 338° |
| 2026-05-07 11:34 | 33.88464 | -118.10331 | 5082 ft | 221 kts | 338° |
| 2026-05-07 11:35 | 33.89921 | -118.10832 | 5077 ft | 221 kts | 358° |
| 2026-05-07 11:35 | 33.91401 | -118.10394 | 5102 ft | 224 kts | 31° |
| 2026-05-07 11:35 | 33.92456 | -118.09023 | 5100 ft | 227 kts | 64° |
| 2026-05-07 11:35 | 33.92697 | -118.07163 | 5102 ft | 229 kts | 99° |
| 2026-05-07 11:36 | 33.92030 | -118.05459 | 5103 ft | 231 kts | 134° |
| 2026-05-07 11:36 | 33.90672 | -118.04429 | 5109 ft | 231 kts | 159° |
| 2026-05-07 11:36 | 33.89176 | -118.03732 | 5082 ft | 231 kts | 159° |
| 2026-05-07 11:36 | 33.87712 | -118.03017 | 5081 ft | 230 kts | 158° |
| 2026-05-07 11:37 | 33.86224 | -118.02288 | 5082 ft | 230 kts | 158° |
| 2026-05-07 11:37 | 33.84691 | -118.01735 | 5076 ft | 229 kts | 179° |
| 2026-05-07 11:37 | 33.83183 | -118.02164 | 5105 ft | 228 kts | 213° |
| 2026-05-07 11:37 | 33.82120 | -118.03540 | 5102 ft | 225 kts | 247° |
| 2026-05-07 11:38 | 33.81881 | -118.05365 | 5101 ft | 222 kts | 280° |
| 2026-05-07 11:38 | 33.82512 | -118.07032 | 5101 ft | 221 kts | 313° |
| 2026-05-07 11:38 | 33.83776 | -118.08017 | 5098 ft | 221 kts | 342° |
| 2026-05-07 11:38 | 33.85287 | -118.08463 | 5011 ft | 222 kts | 346° |
| 2026-05-07 11:39 | 33.86793 | -118.08919 | 4905 ft | 221 kts | 345° |
| 2026-05-07 11:39 | 33.88278 | -118.09399 | 4815 ft | 221 kts | 345° |
| 2026-05-07 11:39 | 33.89756 | -118.09888 | 4735 ft | 220 kts | 344° |
| 2026-05-07 11:39 | 33.91214 | -118.10376 | 4659 ft | 220 kts | 344° |
| 2026-05-07 11:40 | 33.92672 | -118.10947 | 4575 ft | 218 kts | 332° |
| 2026-05-07 11:40 | 33.92839 | -118.11053 | 4566 ft | 218 kts | 329° |
| 2026-05-07 11:40 | 33.93235 | -118.11355 | 4534 ft | 217 kts | 325° |
| 2026-05-07 11:40 | 33.94437 | -118.12450 | 4367 ft | 215 kts | 323° |
| 2026-05-07 11:41 | 33.95552 | -118.13509 | 4318 ft | 197 kts | 319° |
| 2026-05-07 11:41 | 33.96333 | -118.14851 | 4059 ft | 199 kts | 284° |
| 2026-05-07 11:41 | 33.96256 | -118.16505 | 3818 ft | 201 kts | 257° |
| 2026-05-07 11:41 | 33.95940 | -118.18158 | 3538 ft | 207 kts | 259° |
| 2026-05-07 11:42 | 33.95683 | -118.19887 | 3244 ft | 211 kts | 261° |
| 2026-05-07 11:42 | 33.95460 | -118.21644 | 2932 ft | 209 kts | 262° |
| 2026-05-07 11:42 | 33.95266 | -118.23331 | 2608 ft | 196 kts | 263° |
| 2026-05-07 11:42 | 33.95097 | -118.24900 | 2324 ft | 183 kts | 263° |
| 2026-05-07 11:43 | 33.94946 | -118.26344 | 2118 ft | 165 kts | 263° |
| 2026-05-07 11:43 | 33.94812 | -118.27651 | 1888 ft | 155 kts | 263° |
| 2026-05-07 11:43 | 33.94683 | -118.28924 | 1666 ft | 148 kts | 263° |
| 2026-05-07 11:43 | 33.94562 | -118.30125 | 1460 ft | 143 kts | 263° |
| 2026-05-07 11:44 | 33.94441 | -118.31326 | 1270 ft | 143 kts | 263° |
| 2026-05-07 11:44 | 33.94321 | -118.32508 | 1079 ft | 143 kts | 263° |
| 2026-05-07 11:44 | 33.94200 | -118.33699 | 884 ft | 143 kts | 263° |
| 2026-05-07 11:44 | 33.94075 | -118.34891 | 693 ft | 143 kts | 263° |
| 2026-05-07 11:45 | 33.93952 | -118.36085 | 497 ft | 143 kts | 263° |
| 2026-05-07 11:45 | 33.93834 | -118.37272 | 309 ft | 143 kts | 263° |
| 2026-05-07 11:45 | 33.93720 | -118.38482 | 129 ft | 144 kts | 263° |
| 2026-05-07 11:45 | 33.93597 | -118.39633 | 116 ft | 128 kts | 263° |
| 2026-05-07 11:46 | 33.93517 | -118.40424 | 127 ft | 71 kts | 263° |
| 2026-05-07 11:46 | 33.93478 | -118.40836 | 130 ft | 34 kts | 268° |
| 2026-05-07 11:46 | 33.93501 | -118.41070 | 131 ft | 24 kts | 288° |
| 2026-05-07 11:46 | 33.93543 | -118.41228 | 130 ft | 19 kts | 272° |
| 2026-05-07 11:47 | 33.93535 | -118.41321 | 130 ft | 0 kts | 263° |
| 2026-05-07 11:47 | 33.93535 | -118.41320 | 130 ft | 0 kts | 263° |